<?xml version="1.0" encoding="UTF-8" standalone="no" ?>
<gpx xmlns="http://www.topografix.com/GPX/1/1" xmlns:xsi="http://www.w3.org/2001/XMLSchema-instance" xsi:schemaLocation="http://www.topografix.com/GPX/1/1 http://www.topografix.com/GPX/1/1/gpx.xsd" version="1.1" creator="VisuGPX - https://www.visugpx.com">
  <metadata>
    <name>Vironchaux on GPSies.com</name>
    <desc><![CDATA[rando vtt
Beaucoup de goudron, mais sur de petites routes à travers champs très peu fréquentées]]></desc>
  </metadata>
  <trk>
    <name><![CDATA[Vironchaux on GPSies.com]]></name>
    <trkseg>
      <trkpt lat="50.28966" lon="1.81098">
        <ele>63.104</ele>
        <time>2014-07-14T06:21:31Z</time>
      </trkpt>
      <trkpt lat="50.28971" lon="1.81013">
        <ele>62.623</ele>
        <time>2014-07-14T06:21:40Z</time>
      </trkpt>
      <trkpt lat="50.28974" lon="1.80926">
        <ele>62.623</ele>
        <time>2014-07-14T06:21:49Z</time>
      </trkpt>
      <trkpt lat="50.28977" lon="1.80837">
        <ele>62.142</ele>
        <time>2014-07-14T06:21:58Z</time>
      </trkpt>
      <trkpt lat="50.28978" lon="1.80748">
        <ele>62.142</ele>
        <time>2014-07-14T06:22:07Z</time>
      </trkpt>
      <trkpt lat="50.28978" lon="1.80668">
        <ele>62.142</ele>
        <time>2014-07-14T06:22:15Z</time>
      </trkpt>
      <trkpt lat="50.28975" lon="1.80607">
        <ele>61.662</ele>
        <time>2014-07-14T06:22:21Z</time>
      </trkpt>
      <trkpt lat="50.28965" lon="1.80534">
        <ele>61.181</ele>
        <time>2014-07-14T06:22:28Z</time>
      </trkpt>
      <trkpt lat="50.28956" lon="1.8046">
        <ele>60.7</ele>
        <time>2014-07-14T06:22:35Z</time>
      </trkpt>
      <trkpt lat="50.28944" lon="1.80385">
        <ele>60.22</ele>
        <time>2014-07-14T06:22:42Z</time>
      </trkpt>
      <trkpt lat="50.28922" lon="1.80327">
        <ele>59.258</ele>
        <time>2014-07-14T06:22:48Z</time>
      </trkpt>
      <trkpt lat="50.28891" lon="1.80278">
        <ele>59.739</ele>
        <time>2014-07-14T06:22:54Z</time>
      </trkpt>
      <trkpt lat="50.28841" lon="1.80229">
        <ele>59.258</ele>
        <time>2014-07-14T06:23:02Z</time>
      </trkpt>
      <trkpt lat="50.28794" lon="1.80181">
        <ele>58.297</ele>
        <time>2014-07-14T06:23:09Z</time>
      </trkpt>
      <trkpt lat="50.28749" lon="1.80112">
        <ele>57.336</ele>
        <time>2014-07-14T06:23:17Z</time>
      </trkpt>
      <trkpt lat="50.28715" lon="1.80059">
        <ele>55.894</ele>
        <time>2014-07-14T06:23:23Z</time>
      </trkpt>
      <trkpt lat="50.28668" lon="1.80006">
        <ele>54.452</ele>
        <time>2014-07-14T06:23:30Z</time>
      </trkpt>
      <trkpt lat="50.28598" lon="1.79936">
        <ele>52.529</ele>
        <time>2014-07-14T06:23:40Z</time>
      </trkpt>
      <trkpt lat="50.28577" lon="1.79915">
        <ele>52.049</ele>
        <time>2014-07-14T06:23:43Z</time>
      </trkpt>
      <trkpt lat="50.28555" lon="1.79878">
        <ele>51.568</ele>
        <time>2014-07-14T06:23:47Z</time>
      </trkpt>
      <trkpt lat="50.2855" lon="1.79842">
        <ele>51.568</ele>
        <time>2014-07-14T06:23:50Z</time>
      </trkpt>
      <trkpt lat="50.2855" lon="1.79754">
        <ele>54.452</ele>
        <time>2014-07-14T06:23:58Z</time>
      </trkpt>
      <trkpt lat="50.28549" lon="1.79679">
        <ele>55.894</ele>
        <time>2014-07-14T06:24:06Z</time>
      </trkpt>
      <trkpt lat="50.28539" lon="1.79619">
        <ele>56.855</ele>
        <time>2014-07-14T06:24:13Z</time>
      </trkpt>
      <trkpt lat="50.28522" lon="1.79533">
        <ele>56.855</ele>
        <time>2014-07-14T06:24:23Z</time>
      </trkpt>
      <trkpt lat="50.28507" lon="1.79459">
        <ele>57.336</ele>
        <time>2014-07-14T06:24:31Z</time>
      </trkpt>
      <trkpt lat="50.28489" lon="1.79375">
        <ele>57.817</ele>
        <time>2014-07-14T06:24:40Z</time>
      </trkpt>
      <trkpt lat="50.28478" lon="1.7932">
        <ele>57.817</ele>
        <time>2014-07-14T06:24:46Z</time>
      </trkpt>
      <trkpt lat="50.28472" lon="1.79292">
        <ele>57.817</ele>
        <time>2014-07-14T06:24:50Z</time>
      </trkpt>
      <trkpt lat="50.28466" lon="1.79274">
        <ele>57.817</ele>
        <time>2014-07-14T06:24:56Z</time>
      </trkpt>
      <trkpt lat="50.28465" lon="1.79272">
        <ele>58.297</ele>
        <time>2014-07-14T06:24:59Z</time>
      </trkpt>
      <trkpt lat="50.28463" lon="1.79267">
        <ele>57.817</ele>
        <time>2014-07-14T06:25:04Z</time>
      </trkpt>
      <trkpt lat="50.28456" lon="1.79252">
        <ele>56.375</ele>
        <time>2014-07-14T06:25:11Z</time>
      </trkpt>
      <trkpt lat="50.28447" lon="1.7924">
        <ele>54.932</ele>
        <time>2014-07-14T06:25:18Z</time>
      </trkpt>
      <trkpt lat="50.28437" lon="1.79232">
        <ele>54.932</ele>
        <time>2014-07-14T06:25:25Z</time>
      </trkpt>
      <trkpt lat="50.28429" lon="1.79224">
        <ele>54.452</ele>
        <time>2014-07-14T06:25:29Z</time>
      </trkpt>
      <trkpt lat="50.28471" lon="1.7929">
        <ele>55.413</ele>
        <time>2014-07-14T06:25:32Z</time>
      </trkpt>
      <trkpt lat="50.28471" lon="1.7929">
        <ele>54.452</ele>
        <time>2014-07-14T06:25:50Z</time>
      </trkpt>
      <trkpt lat="50.2843" lon="1.79211">
        <ele>54.932</ele>
        <time>2014-07-14T06:25:55Z</time>
      </trkpt>
      <trkpt lat="50.28429" lon="1.79205">
        <ele>55.894</ele>
        <time>2014-07-14T06:26:04Z</time>
      </trkpt>
      <trkpt lat="50.28428" lon="1.79196">
        <ele>56.375</ele>
        <time>2014-07-14T06:26:09Z</time>
      </trkpt>
      <trkpt lat="50.28427" lon="1.7919">
        <ele>56.855</ele>
        <time>2014-07-14T06:26:14Z</time>
      </trkpt>
      <trkpt lat="50.28425" lon="1.79176">
        <ele>55.413</ele>
        <time>2014-07-14T06:26:20Z</time>
      </trkpt>
      <trkpt lat="50.28424" lon="1.79164">
        <ele>53.49</ele>
        <time>2014-07-14T06:26:25Z</time>
      </trkpt>
      <trkpt lat="50.28421" lon="1.79148">
        <ele>53.971</ele>
        <time>2014-07-14T06:26:33Z</time>
      </trkpt>
      <trkpt lat="50.28419" lon="1.79136">
        <ele>54.452</ele>
        <time>2014-07-14T06:26:39Z</time>
      </trkpt>
      <trkpt lat="50.28418" lon="1.79123">
        <ele>53.971</ele>
        <time>2014-07-14T06:26:46Z</time>
      </trkpt>
      <trkpt lat="50.28416" lon="1.79111">
        <ele>54.452</ele>
        <time>2014-07-14T06:26:52Z</time>
      </trkpt>
      <trkpt lat="50.28313" lon="1.79133">
        <ele>54.932</ele>
        <time>2014-07-14T06:26:57Z</time>
      </trkpt>
      <trkpt lat="50.28303" lon="1.79123">
        <ele>54.932</ele>
        <time>2014-07-14T06:27:03Z</time>
      </trkpt>
      <trkpt lat="50.28291" lon="1.79116">
        <ele>53.971</ele>
        <time>2014-07-14T06:27:09Z</time>
      </trkpt>
      <trkpt lat="50.2829" lon="1.79116">
        <ele>53.49</ele>
        <time>2014-07-14T06:27:10Z</time>
      </trkpt>
      <trkpt lat="50.28258" lon="1.78994">
        <ele>55.413</ele>
        <time>2014-07-14T06:27:27Z</time>
      </trkpt>
      <trkpt lat="50.28246" lon="1.79">
        <ele>54.452</ele>
        <time>2014-07-14T06:27:34Z</time>
      </trkpt>
      <trkpt lat="50.28237" lon="1.79005">
        <ele>50.126</ele>
        <time>2014-07-14T06:27:39Z</time>
      </trkpt>
      <trkpt lat="50.28222" lon="1.79013">
        <ele>42.435</ele>
        <time>2014-07-14T06:27:46Z</time>
      </trkpt>
      <trkpt lat="50.2821" lon="1.7902">
        <ele>38.59</ele>
        <time>2014-07-14T06:27:52Z</time>
      </trkpt>
      <trkpt lat="50.282" lon="1.79025">
        <ele>36.187</ele>
        <time>2014-07-14T06:27:57Z</time>
      </trkpt>
      <trkpt lat="50.28186" lon="1.79033">
        <ele>40.032</ele>
        <time>2014-07-14T06:28:02Z</time>
      </trkpt>
      <trkpt lat="50.28184" lon="1.79034">
        <ele>41.474</ele>
        <time>2014-07-14T06:28:03Z</time>
      </trkpt>
      <trkpt lat="50.28178" lon="1.79037">
        <ele>45.8</ele>
        <time>2014-07-14T06:28:07Z</time>
      </trkpt>
      <trkpt lat="50.28165" lon="1.79044">
        <ele>48.684</ele>
        <time>2014-07-14T06:28:14Z</time>
      </trkpt>
      <trkpt lat="50.2814" lon="1.78994">
        <ele>49.645</ele>
        <time>2014-07-14T06:28:20Z</time>
      </trkpt>
      <trkpt lat="50.28164" lon="1.79045">
        <ele>50.126</ele>
        <time>2014-07-14T06:28:24Z</time>
      </trkpt>
      <trkpt lat="50.28107" lon="1.78931">
        <ele>45.319</ele>
        <time>2014-07-14T06:28:39Z</time>
      </trkpt>
      <trkpt lat="50.28102" lon="1.78907">
        <ele>40.032</ele>
        <time>2014-07-14T06:28:45Z</time>
      </trkpt>
      <trkpt lat="50.2809" lon="1.78894">
        <ele>41.955</ele>
        <time>2014-07-14T06:28:50Z</time>
      </trkpt>
      <trkpt lat="50.2808" lon="1.78887">
        <ele>42.916</ele>
        <time>2014-07-14T06:28:54Z</time>
      </trkpt>
      <trkpt lat="50.28073" lon="1.78871">
        <ele>43.397</ele>
        <time>2014-07-14T06:29:00Z</time>
      </trkpt>
      <trkpt lat="50.2806" lon="1.78856">
        <ele>43.397</ele>
        <time>2014-07-14T06:29:07Z</time>
      </trkpt>
      <trkpt lat="50.28047" lon="1.78848">
        <ele>44.358</ele>
        <time>2014-07-14T06:29:12Z</time>
      </trkpt>
      <trkpt lat="50.28032" lon="1.78836">
        <ele>43.397</ele>
        <time>2014-07-14T06:29:19Z</time>
      </trkpt>
      <trkpt lat="50.28026" lon="1.78826">
        <ele>42.916</ele>
        <time>2014-07-14T06:29:23Z</time>
      </trkpt>
      <trkpt lat="50.28025" lon="1.78807">
        <ele>40.993</ele>
        <time>2014-07-14T06:29:27Z</time>
      </trkpt>
      <trkpt lat="50.28034" lon="1.78785">
        <ele>38.109</ele>
        <time>2014-07-14T06:29:33Z</time>
      </trkpt>
      <trkpt lat="50.28042" lon="1.78762">
        <ele>36.187</ele>
        <time>2014-07-14T06:29:38Z</time>
      </trkpt>
      <trkpt lat="50.28052" lon="1.7873">
        <ele>35.706</ele>
        <time>2014-07-14T06:29:44Z</time>
      </trkpt>
      <trkpt lat="50.28062" lon="1.78718">
        <ele>34.745</ele>
        <time>2014-07-14T06:29:49Z</time>
      </trkpt>
      <trkpt lat="50.28061" lon="1.78694">
        <ele>36.187</ele>
        <time>2014-07-14T06:29:54Z</time>
      </trkpt>
      <trkpt lat="50.28054" lon="1.78649">
        <ele>43.397</ele>
        <time>2014-07-14T06:30:01Z</time>
      </trkpt>
      <trkpt lat="50.28054" lon="1.78618">
        <ele>46.761</ele>
        <time>2014-07-14T06:30:07Z</time>
      </trkpt>
      <trkpt lat="50.28121" lon="1.78528">
        <ele>44.839</ele>
        <time>2014-07-14T06:30:12Z</time>
      </trkpt>
      <trkpt lat="50.28125" lon="1.78534">
        <ele>44.839</ele>
        <time>2014-07-14T06:30:15Z</time>
      </trkpt>
      <trkpt lat="50.28127" lon="1.78537">
        <ele>46.281</ele>
        <time>2014-07-14T06:30:19Z</time>
      </trkpt>
      <trkpt lat="50.2813" lon="1.78543">
        <ele>47.242</ele>
        <time>2014-07-14T06:31:25Z</time>
      </trkpt>
      <trkpt lat="50.28139" lon="1.78558">
        <ele>48.203</ele>
        <time>2014-07-14T06:31:31Z</time>
      </trkpt>
      <trkpt lat="50.28144" lon="1.78566">
        <ele>47.723</ele>
        <time>2014-07-14T06:31:37Z</time>
      </trkpt>
      <trkpt lat="50.28155" lon="1.78584">
        <ele>49.165</ele>
        <time>2014-07-14T06:31:43Z</time>
      </trkpt>
      <trkpt lat="50.28164" lon="1.78598">
        <ele>49.165</ele>
        <time>2014-07-14T06:31:49Z</time>
      </trkpt>
      <trkpt lat="50.28165" lon="1.78601">
        <ele>48.684</ele>
        <time>2014-07-14T06:31:50Z</time>
      </trkpt>
      <trkpt lat="50.28175" lon="1.78617">
        <ele>48.203</ele>
        <time>2014-07-14T06:31:57Z</time>
      </trkpt>
      <trkpt lat="50.28185" lon="1.78634">
        <ele>50.607</ele>
        <time>2014-07-14T06:32:03Z</time>
      </trkpt>
      <trkpt lat="50.28193" lon="1.78648">
        <ele>53.01</ele>
        <time>2014-07-14T06:32:08Z</time>
      </trkpt>
      <trkpt lat="50.28204" lon="1.78671">
        <ele>54.932</ele>
        <time>2014-07-14T06:32:13Z</time>
      </trkpt>
      <trkpt lat="50.28175" lon="1.78722">
        <ele>57.336</ele>
        <time>2014-07-14T06:32:19Z</time>
      </trkpt>
      <trkpt lat="50.28175" lon="1.78723">
        <ele>57.817</ele>
        <time>2014-07-14T06:32:20Z</time>
      </trkpt>
      <trkpt lat="50.28206" lon="1.78694">
        <ele>52.529</ele>
        <time>2014-07-14T06:32:37Z</time>
      </trkpt>
      <trkpt lat="50.28206" lon="1.78692">
        <ele>49.645</ele>
        <time>2014-07-14T06:32:43Z</time>
      </trkpt>
      <trkpt lat="50.28207" lon="1.78689">
        <ele>48.203</ele>
        <time>2014-07-14T06:32:46Z</time>
      </trkpt>
      <trkpt lat="50.28207" lon="1.78689">
        <ele>48.684</ele>
        <time>2014-07-14T06:32:50Z</time>
      </trkpt>
      <trkpt lat="50.28207" lon="1.78689">
        <ele>50.126</ele>
        <time>2014-07-14T06:33:04Z</time>
      </trkpt>
      <trkpt lat="50.28207" lon="1.78689">
        <ele>51.568</ele>
        <time>2014-07-14T06:33:17Z</time>
      </trkpt>
      <trkpt lat="50.28207" lon="1.78689">
        <ele>48.203</ele>
        <time>2014-07-14T06:33:28Z</time>
      </trkpt>
      <trkpt lat="50.28207" lon="1.78679">
        <ele>45.8</ele>
        <time>2014-07-14T06:33:32Z</time>
      </trkpt>
      <trkpt lat="50.28203" lon="1.78664">
        <ele>40.513</ele>
        <time>2014-07-14T06:33:40Z</time>
      </trkpt>
      <trkpt lat="50.28202" lon="1.78663">
        <ele>39.551</ele>
        <time>2014-07-14T06:33:42Z</time>
      </trkpt>
      <trkpt lat="50.28199" lon="1.78658">
        <ele>37.629</ele>
        <time>2014-07-14T06:33:46Z</time>
      </trkpt>
      <trkpt lat="50.28195" lon="1.78651">
        <ele>36.667</ele>
        <time>2014-07-14T06:33:49Z</time>
      </trkpt>
      <trkpt lat="50.28189" lon="1.78641">
        <ele>30.9</ele>
        <time>2014-07-14T06:33:57Z</time>
      </trkpt>
      <trkpt lat="50.28181" lon="1.78627">
        <ele>27.054</ele>
        <time>2014-07-14T06:34:04Z</time>
      </trkpt>
      <trkpt lat="50.28181" lon="1.78627">
        <ele>28.496</ele>
        <time>2014-07-14T06:34:12Z</time>
      </trkpt>
      <trkpt lat="50.28181" lon="1.78627">
        <ele>31.38</ele>
        <time>2014-07-14T06:34:19Z</time>
      </trkpt>
      <trkpt lat="50.28181" lon="1.78627">
        <ele>33.303</ele>
        <time>2014-07-14T06:34:23Z</time>
      </trkpt>
      <trkpt lat="50.28159" lon="1.7859">
        <ele>36.667</ele>
        <time>2014-07-14T06:34:36Z</time>
      </trkpt>
      <trkpt lat="50.28149" lon="1.78573">
        <ele>36.187</ele>
        <time>2014-07-14T06:34:41Z</time>
      </trkpt>
      <trkpt lat="50.28134" lon="1.78548">
        <ele>36.187</ele>
        <time>2014-07-14T06:34:48Z</time>
      </trkpt>
      <trkpt lat="50.28124" lon="1.78533">
        <ele>34.745</ele>
        <time>2014-07-14T06:34:53Z</time>
      </trkpt>
      <trkpt lat="50.28113" lon="1.78515">
        <ele>31.38</ele>
        <time>2014-07-14T06:34:58Z</time>
      </trkpt>
      <trkpt lat="50.28098" lon="1.7849">
        <ele>30.419</ele>
        <time>2014-07-14T06:35:04Z</time>
      </trkpt>
      <trkpt lat="50.28082" lon="1.78464">
        <ele>31.38</ele>
        <time>2014-07-14T06:35:09Z</time>
      </trkpt>
      <trkpt lat="50.28067" lon="1.78434">
        <ele>32.342</ele>
        <time>2014-07-14T06:35:14Z</time>
      </trkpt>
      <trkpt lat="50.28049" lon="1.78367">
        <ele>36.667</ele>
        <time>2014-07-14T06:35:20Z</time>
      </trkpt>
      <trkpt lat="50.28053" lon="1.78321">
        <ele>42.916</ele>
        <time>2014-07-14T06:35:25Z</time>
      </trkpt>
      <trkpt lat="50.28058" lon="1.78288">
        <ele>43.877</ele>
        <time>2014-07-14T06:35:29Z</time>
      </trkpt>
      <trkpt lat="50.28063" lon="1.78249">
        <ele>42.916</ele>
        <time>2014-07-14T06:35:34Z</time>
      </trkpt>
      <trkpt lat="50.28066" lon="1.78212">
        <ele>43.877</ele>
        <time>2014-07-14T06:35:39Z</time>
      </trkpt>
      <trkpt lat="50.28071" lon="1.78168">
        <ele>42.916</ele>
        <time>2014-07-14T06:35:45Z</time>
      </trkpt>
      <trkpt lat="50.28072" lon="1.78156">
        <ele>39.071</ele>
        <time>2014-07-14T06:35:51Z</time>
      </trkpt>
      <trkpt lat="50.28072" lon="1.78156">
        <ele>37.148</ele>
        <time>2014-07-14T06:36:34Z</time>
      </trkpt>
      <trkpt lat="50.28094" lon="1.78163">
        <ele>36.667</ele>
        <time>2014-07-14T06:36:38Z</time>
      </trkpt>
      <trkpt lat="50.2811" lon="1.78044">
        <ele>36.667</ele>
        <time>2014-07-14T06:36:44Z</time>
      </trkpt>
      <trkpt lat="50.28112" lon="1.7802">
        <ele>36.187</ele>
        <time>2014-07-14T06:36:49Z</time>
      </trkpt>
      <trkpt lat="50.28114" lon="1.78002">
        <ele>37.148</ele>
        <time>2014-07-14T06:36:53Z</time>
      </trkpt>
      <trkpt lat="50.28115" lon="1.77996">
        <ele>37.629</ele>
        <time>2014-07-14T06:36:54Z</time>
      </trkpt>
      <trkpt lat="50.28117" lon="1.77973">
        <ele>41.474</ele>
        <time>2014-07-14T06:36:59Z</time>
      </trkpt>
      <trkpt lat="50.28121" lon="1.77938">
        <ele>43.877</ele>
        <time>2014-07-14T06:37:05Z</time>
      </trkpt>
      <trkpt lat="50.28121" lon="1.77906">
        <ele>43.397</ele>
        <time>2014-07-14T06:37:10Z</time>
      </trkpt>
      <trkpt lat="50.28122" lon="1.77893">
        <ele>42.916</ele>
        <time>2014-07-14T06:37:12Z</time>
      </trkpt>
      <trkpt lat="50.28122" lon="1.77852">
        <ele>42.916</ele>
        <time>2014-07-14T06:37:19Z</time>
      </trkpt>
      <trkpt lat="50.28123" lon="1.7782">
        <ele>45.319</ele>
        <time>2014-07-14T06:37:25Z</time>
      </trkpt>
      <trkpt lat="50.28127" lon="1.77788">
        <ele>46.281</ele>
        <time>2014-07-14T06:37:31Z</time>
      </trkpt>
      <trkpt lat="50.28129" lon="1.77768">
        <ele>44.358</ele>
        <time>2014-07-14T06:37:35Z</time>
      </trkpt>
      <trkpt lat="50.2813" lon="1.77746">
        <ele>42.916</ele>
        <time>2014-07-14T06:37:39Z</time>
      </trkpt>
      <trkpt lat="50.28131" lon="1.77704">
        <ele>41.955</ele>
        <time>2014-07-14T06:37:45Z</time>
      </trkpt>
      <trkpt lat="50.28127" lon="1.77664">
        <ele>39.071</ele>
        <time>2014-07-14T06:37:51Z</time>
      </trkpt>
      <trkpt lat="50.28127" lon="1.77651">
        <ele>36.667</ele>
        <time>2014-07-14T06:37:54Z</time>
      </trkpt>
      <trkpt lat="50.28127" lon="1.77646">
        <ele>35.225</ele>
        <time>2014-07-14T06:37:59Z</time>
      </trkpt>
      <trkpt lat="50.28127" lon="1.77652">
        <ele>38.109</ele>
        <time>2014-07-14T06:38:02Z</time>
      </trkpt>
      <trkpt lat="50.28129" lon="1.77674">
        <ele>41.474</ele>
        <time>2014-07-14T06:38:07Z</time>
      </trkpt>
      <trkpt lat="50.28131" lon="1.77699">
        <ele>45.319</ele>
        <time>2014-07-14T06:38:12Z</time>
      </trkpt>
      <trkpt lat="50.28131" lon="1.77717">
        <ele>49.645</ele>
        <time>2014-07-14T06:38:18Z</time>
      </trkpt>
      <trkpt lat="50.28131" lon="1.77734">
        <ele>54.452</ele>
        <time>2014-07-14T06:38:22Z</time>
      </trkpt>
      <trkpt lat="50.2813" lon="1.77751">
        <ele>58.297</ele>
        <time>2014-07-14T06:38:27Z</time>
      </trkpt>
      <trkpt lat="50.28129" lon="1.77765">
        <ele>59.258</ele>
        <time>2014-07-14T06:38:32Z</time>
      </trkpt>
      <trkpt lat="50.28129" lon="1.7777">
        <ele>60.22</ele>
        <time>2014-07-14T06:38:37Z</time>
      </trkpt>
      <trkpt lat="50.28292" lon="1.77857">
        <ele>59.739</ele>
        <time>2014-07-14T06:38:43Z</time>
      </trkpt>
      <trkpt lat="50.283" lon="1.7785">
        <ele>51.087</ele>
        <time>2014-07-14T06:38:58Z</time>
      </trkpt>
      <trkpt lat="50.28313" lon="1.77827">
        <ele>48.203</ele>
        <time>2014-07-14T06:39:02Z</time>
      </trkpt>
      <trkpt lat="50.2831" lon="1.77812">
        <ele>46.761</ele>
        <time>2014-07-14T06:39:05Z</time>
      </trkpt>
      <trkpt lat="50.28306" lon="1.77794">
        <ele>46.281</ele>
        <time>2014-07-14T06:39:08Z</time>
      </trkpt>
      <trkpt lat="50.283" lon="1.77756">
        <ele>45.319</ele>
        <time>2014-07-14T06:39:14Z</time>
      </trkpt>
      <trkpt lat="50.28299" lon="1.77729">
        <ele>43.397</ele>
        <time>2014-07-14T06:39:18Z</time>
      </trkpt>
      <trkpt lat="50.28299" lon="1.77691">
        <ele>41.474</ele>
        <time>2014-07-14T06:39:23Z</time>
      </trkpt>
      <trkpt lat="50.28301" lon="1.77615">
        <ele>36.667</ele>
        <time>2014-07-14T06:39:31Z</time>
      </trkpt>
      <trkpt lat="50.28298" lon="1.77536">
        <ele>32.822</ele>
        <time>2014-07-14T06:39:39Z</time>
      </trkpt>
      <trkpt lat="50.28294" lon="1.77498">
        <ele>31.38</ele>
        <time>2014-07-14T06:39:43Z</time>
      </trkpt>
      <trkpt lat="50.28278" lon="1.77435">
        <ele>30.9</ele>
        <time>2014-07-14T06:39:50Z</time>
      </trkpt>
      <trkpt lat="50.28258" lon="1.77396">
        <ele>30.9</ele>
        <time>2014-07-14T06:39:56Z</time>
      </trkpt>
      <trkpt lat="50.28253" lon="1.77373">
        <ele>30.419</ele>
        <time>2014-07-14T06:40:00Z</time>
      </trkpt>
      <trkpt lat="50.28252" lon="1.77346">
        <ele>30.9</ele>
        <time>2014-07-14T06:40:04Z</time>
      </trkpt>
      <trkpt lat="50.28249" lon="1.77342">
        <ele>30.9</ele>
        <time>2014-07-14T06:40:05Z</time>
      </trkpt>
      <trkpt lat="50.28226" lon="1.77298">
        <ele>28.016</ele>
        <time>2014-07-14T06:40:13Z</time>
      </trkpt>
      <trkpt lat="50.28204" lon="1.77259">
        <ele>25.132</ele>
        <time>2014-07-14T06:40:20Z</time>
      </trkpt>
      <trkpt lat="50.28182" lon="1.77214">
        <ele>23.209</ele>
        <time>2014-07-14T06:40:27Z</time>
      </trkpt>
      <trkpt lat="50.28175" lon="1.77189">
        <ele>22.248</ele>
        <time>2014-07-14T06:40:31Z</time>
      </trkpt>
      <trkpt lat="50.28174" lon="1.77165">
        <ele>21.286</ele>
        <time>2014-07-14T06:40:37Z</time>
      </trkpt>
      <trkpt lat="50.28173" lon="1.7716">
        <ele>20.806</ele>
        <time>2014-07-14T06:40:43Z</time>
      </trkpt>
      <trkpt lat="50.28173" lon="1.7716">
        <ele>20.325</ele>
        <time>2014-07-14T06:40:47Z</time>
      </trkpt>
      <trkpt lat="50.28173" lon="1.77162">
        <ele>21.286</ele>
        <time>2014-07-14T06:41:40Z</time>
      </trkpt>
      <trkpt lat="50.28174" lon="1.77171">
        <ele>21.767</ele>
        <time>2014-07-14T06:41:48Z</time>
      </trkpt>
      <trkpt lat="50.28175" lon="1.77189">
        <ele>23.69</ele>
        <time>2014-07-14T06:41:55Z</time>
      </trkpt>
      <trkpt lat="50.2818" lon="1.77207">
        <ele>23.69</ele>
        <time>2014-07-14T06:42:02Z</time>
      </trkpt>
      <trkpt lat="50.28186" lon="1.77226">
        <ele>23.69</ele>
        <time>2014-07-14T06:42:09Z</time>
      </trkpt>
      <trkpt lat="50.28195" lon="1.77243">
        <ele>24.17</ele>
        <time>2014-07-14T06:42:16Z</time>
      </trkpt>
      <trkpt lat="50.28209" lon="1.77267">
        <ele>25.612</ele>
        <time>2014-07-14T06:42:24Z</time>
      </trkpt>
      <trkpt lat="50.28223" lon="1.77291">
        <ele>27.054</ele>
        <time>2014-07-14T06:42:32Z</time>
      </trkpt>
      <trkpt lat="50.28237" lon="1.77319">
        <ele>28.496</ele>
        <time>2014-07-14T06:42:41Z</time>
      </trkpt>
      <trkpt lat="50.28247" lon="1.77337">
        <ele>31.861</ele>
        <time>2014-07-14T06:42:47Z</time>
      </trkpt>
      <trkpt lat="50.28256" lon="1.77355">
        <ele>34.264</ele>
        <time>2014-07-14T06:42:53Z</time>
      </trkpt>
      <trkpt lat="50.28257" lon="1.77362">
        <ele>35.225</ele>
        <time>2014-07-14T06:42:55Z</time>
      </trkpt>
      <trkpt lat="50.28253" lon="1.77373">
        <ele>36.187</ele>
        <time>2014-07-14T06:43:01Z</time>
      </trkpt>
      <trkpt lat="50.28249" lon="1.77374">
        <ele>36.187</ele>
        <time>2014-07-14T06:43:02Z</time>
      </trkpt>
      <trkpt lat="50.28245" lon="1.77375">
        <ele>36.667</ele>
        <time>2014-07-14T06:43:06Z</time>
      </trkpt>
      <trkpt lat="50.28241" lon="1.77326">
        <ele>33.783</ele>
        <time>2014-07-14T06:43:13Z</time>
      </trkpt>
      <trkpt lat="50.28233" lon="1.77311">
        <ele>33.303</ele>
        <time>2014-07-14T06:43:18Z</time>
      </trkpt>
      <trkpt lat="50.28219" lon="1.77284">
        <ele>32.822</ele>
        <time>2014-07-14T06:43:25Z</time>
      </trkpt>
      <trkpt lat="50.28207" lon="1.77265">
        <ele>31.38</ele>
        <time>2014-07-14T06:43:30Z</time>
      </trkpt>
      <trkpt lat="50.28193" lon="1.77239">
        <ele>29.458</ele>
        <time>2014-07-14T06:43:36Z</time>
      </trkpt>
      <trkpt lat="50.28125" lon="1.77269">
        <ele>27.054</ele>
        <time>2014-07-14T06:43:42Z</time>
      </trkpt>
      <trkpt lat="50.28101" lon="1.77268">
        <ele>25.612</ele>
        <time>2014-07-14T06:43:47Z</time>
      </trkpt>
      <trkpt lat="50.28086" lon="1.77271">
        <ele>25.132</ele>
        <time>2014-07-14T06:43:53Z</time>
      </trkpt>
      <trkpt lat="50.28078" lon="1.77275">
        <ele>24.17</ele>
        <time>2014-07-14T06:43:56Z</time>
      </trkpt>
      <trkpt lat="50.28054" lon="1.77276">
        <ele>22.728</ele>
        <time>2014-07-14T06:44:01Z</time>
      </trkpt>
      <trkpt lat="50.28045" lon="1.77264">
        <ele>21.767</ele>
        <time>2014-07-14T06:44:04Z</time>
      </trkpt>
      <trkpt lat="50.28029" lon="1.77237">
        <ele>19.844</ele>
        <time>2014-07-14T06:44:10Z</time>
      </trkpt>
      <trkpt lat="50.28028" lon="1.77204">
        <ele>18.402</ele>
        <time>2014-07-14T06:44:14Z</time>
      </trkpt>
      <trkpt lat="50.2803" lon="1.77201">
        <ele>18.883</ele>
        <time>2014-07-14T06:44:16Z</time>
      </trkpt>
      <trkpt lat="50.28055" lon="1.77171">
        <ele>18.402</ele>
        <time>2014-07-14T06:44:23Z</time>
      </trkpt>
      <trkpt lat="50.28081" lon="1.77152">
        <ele>18.883</ele>
        <time>2014-07-14T06:44:30Z</time>
      </trkpt>
      <trkpt lat="50.28121" lon="1.77148">
        <ele>20.325</ele>
        <time>2014-07-14T06:44:40Z</time>
      </trkpt>
      <trkpt lat="50.28147" lon="1.77146">
        <ele>19.844</ele>
        <time>2014-07-14T06:44:47Z</time>
      </trkpt>
      <trkpt lat="50.28164" lon="1.77149">
        <ele>19.844</ele>
        <time>2014-07-14T06:44:51Z</time>
      </trkpt>
      <trkpt lat="50.28175" lon="1.77141">
        <ele>19.844</ele>
        <time>2014-07-14T06:44:55Z</time>
      </trkpt>
      <trkpt lat="50.28174" lon="1.77116">
        <ele>18.883</ele>
        <time>2014-07-14T06:44:59Z</time>
      </trkpt>
      <trkpt lat="50.28164" lon="1.7709">
        <ele>18.402</ele>
        <time>2014-07-14T06:45:03Z</time>
      </trkpt>
      <trkpt lat="50.28154" lon="1.77081">
        <ele>17.922</ele>
        <time>2014-07-14T06:45:05Z</time>
      </trkpt>
      <trkpt lat="50.28138" lon="1.77076">
        <ele>17.441</ele>
        <time>2014-07-14T06:45:08Z</time>
      </trkpt>
      <trkpt lat="50.28112" lon="1.7705">
        <ele>16.48</ele>
        <time>2014-07-14T06:45:13Z</time>
      </trkpt>
      <trkpt lat="50.281" lon="1.77007">
        <ele>16.48</ele>
        <time>2014-07-14T06:45:18Z</time>
      </trkpt>
      <trkpt lat="50.28099" lon="1.7698">
        <ele>16.96</ele>
        <time>2014-07-14T06:45:21Z</time>
      </trkpt>
      <trkpt lat="50.28102" lon="1.76953">
        <ele>16.96</ele>
        <time>2014-07-14T06:45:24Z</time>
      </trkpt>
      <trkpt lat="50.28102" lon="1.76911">
        <ele>17.441</ele>
        <time>2014-07-14T06:45:29Z</time>
      </trkpt>
      <trkpt lat="50.28087" lon="1.76851">
        <ele>18.402</ele>
        <time>2014-07-14T06:45:37Z</time>
      </trkpt>
      <trkpt lat="50.28082" lon="1.76833">
        <ele>18.883</ele>
        <time>2014-07-14T06:45:41Z</time>
      </trkpt>
      <trkpt lat="50.28078" lon="1.76815">
        <ele>18.883</ele>
        <time>2014-07-14T06:45:45Z</time>
      </trkpt>
      <trkpt lat="50.28071" lon="1.76791">
        <ele>19.364</ele>
        <time>2014-07-14T06:45:49Z</time>
      </trkpt>
      <trkpt lat="50.28066" lon="1.76772">
        <ele>20.325</ele>
        <time>2014-07-14T06:45:52Z</time>
      </trkpt>
      <trkpt lat="50.28061" lon="1.76751">
        <ele>21.286</ele>
        <time>2014-07-14T06:45:55Z</time>
      </trkpt>
      <trkpt lat="50.28057" lon="1.76733">
        <ele>21.767</ele>
        <time>2014-07-14T06:45:58Z</time>
      </trkpt>
      <trkpt lat="50.28055" lon="1.76701">
        <ele>22.248</ele>
        <time>2014-07-14T06:46:03Z</time>
      </trkpt>
      <trkpt lat="50.28066" lon="1.76675">
        <ele>23.209</ele>
        <time>2014-07-14T06:46:08Z</time>
      </trkpt>
      <trkpt lat="50.28097" lon="1.7665">
        <ele>24.651</ele>
        <time>2014-07-14T06:46:16Z</time>
      </trkpt>
      <trkpt lat="50.28132" lon="1.76635">
        <ele>26.093</ele>
        <time>2014-07-14T06:46:24Z</time>
      </trkpt>
      <trkpt lat="50.28141" lon="1.7663">
        <ele>26.574</ele>
        <time>2014-07-14T06:46:26Z</time>
      </trkpt>
      <trkpt lat="50.28152" lon="1.76622">
        <ele>27.535</ele>
        <time>2014-07-14T06:46:29Z</time>
      </trkpt>
      <trkpt lat="50.28169" lon="1.76594">
        <ele>28.977</ele>
        <time>2014-07-14T06:46:35Z</time>
      </trkpt>
      <trkpt lat="50.28171" lon="1.7659">
        <ele>28.977</ele>
        <time>2014-07-14T06:46:36Z</time>
      </trkpt>
      <trkpt lat="50.2818" lon="1.76549">
        <ele>30.9</ele>
        <time>2014-07-14T06:46:44Z</time>
      </trkpt>
      <trkpt lat="50.28191" lon="1.76497">
        <ele>31.861</ele>
        <time>2014-07-14T06:46:54Z</time>
      </trkpt>
      <trkpt lat="50.28202" lon="1.76446">
        <ele>33.783</ele>
        <time>2014-07-14T06:47:04Z</time>
      </trkpt>
      <trkpt lat="50.28216" lon="1.7639">
        <ele>36.187</ele>
        <time>2014-07-14T06:47:15Z</time>
      </trkpt>
      <trkpt lat="50.28233" lon="1.76347">
        <ele>37.629</ele>
        <time>2014-07-14T06:47:24Z</time>
      </trkpt>
      <trkpt lat="50.28255" lon="1.76297">
        <ele>39.071</ele>
        <time>2014-07-14T06:47:35Z</time>
      </trkpt>
      <trkpt lat="50.28275" lon="1.7625">
        <ele>40.513</ele>
        <time>2014-07-14T06:47:45Z</time>
      </trkpt>
      <trkpt lat="50.2829" lon="1.76198">
        <ele>41.474</ele>
        <time>2014-07-14T06:47:55Z</time>
      </trkpt>
      <trkpt lat="50.28293" lon="1.76158">
        <ele>41.955</ele>
        <time>2014-07-14T06:48:02Z</time>
      </trkpt>
      <trkpt lat="50.28294" lon="1.76103">
        <ele>42.435</ele>
        <time>2014-07-14T06:48:10Z</time>
      </trkpt>
      <trkpt lat="50.28294" lon="1.76043">
        <ele>43.397</ele>
        <time>2014-07-14T06:48:18Z</time>
      </trkpt>
      <trkpt lat="50.28294" lon="1.7597">
        <ele>44.358</ele>
        <time>2014-07-14T06:48:27Z</time>
      </trkpt>
      <trkpt lat="50.28294" lon="1.75894">
        <ele>44.839</ele>
        <time>2014-07-14T06:48:36Z</time>
      </trkpt>
      <trkpt lat="50.28296" lon="1.75813">
        <ele>44.839</ele>
        <time>2014-07-14T06:48:45Z</time>
      </trkpt>
      <trkpt lat="50.28297" lon="1.75705">
        <ele>44.839</ele>
        <time>2014-07-14T06:48:57Z</time>
      </trkpt>
      <trkpt lat="50.28293" lon="1.75653">
        <ele>45.319</ele>
        <time>2014-07-14T06:49:03Z</time>
      </trkpt>
      <trkpt lat="50.28285" lon="1.75601">
        <ele>46.761</ele>
        <time>2014-07-14T06:49:09Z</time>
      </trkpt>
      <trkpt lat="50.28283" lon="1.75592">
        <ele>46.761</ele>
        <time>2014-07-14T06:49:10Z</time>
      </trkpt>
      <trkpt lat="50.28272" lon="1.75532">
        <ele>45.319</ele>
        <time>2014-07-14T06:49:17Z</time>
      </trkpt>
      <trkpt lat="50.28267" lon="1.75492">
        <ele>45.319</ele>
        <time>2014-07-14T06:49:22Z</time>
      </trkpt>
      <trkpt lat="50.2828" lon="1.75481">
        <ele>44.839</ele>
        <time>2014-07-14T06:49:25Z</time>
      </trkpt>
      <trkpt lat="50.28332" lon="1.75439">
        <ele>44.358</ele>
        <time>2014-07-14T06:49:35Z</time>
      </trkpt>
      <trkpt lat="50.28378" lon="1.75399">
        <ele>43.877</ele>
        <time>2014-07-14T06:49:44Z</time>
      </trkpt>
      <trkpt lat="50.28416" lon="1.75367">
        <ele>43.877</ele>
        <time>2014-07-14T06:49:51Z</time>
      </trkpt>
      <trkpt lat="50.28477" lon="1.75318">
        <ele>43.877</ele>
        <time>2014-07-14T06:50:02Z</time>
      </trkpt>
      <trkpt lat="50.28537" lon="1.75265">
        <ele>43.877</ele>
        <time>2014-07-14T06:50:13Z</time>
      </trkpt>
      <trkpt lat="50.28548" lon="1.75247">
        <ele>43.877</ele>
        <time>2014-07-14T06:50:17Z</time>
      </trkpt>
      <trkpt lat="50.28542" lon="1.75238">
        <ele>43.877</ele>
        <time>2014-07-14T06:50:19Z</time>
      </trkpt>
      <trkpt lat="50.28514" lon="1.75193">
        <ele>43.397</ele>
        <time>2014-07-14T06:50:26Z</time>
      </trkpt>
      <trkpt lat="50.28491" lon="1.75124">
        <ele>43.397</ele>
        <time>2014-07-14T06:50:34Z</time>
      </trkpt>
      <trkpt lat="50.28465" lon="1.75043">
        <ele>42.916</ele>
        <time>2014-07-14T06:50:43Z</time>
      </trkpt>
      <trkpt lat="50.28442" lon="1.74969">
        <ele>42.435</ele>
        <time>2014-07-14T06:50:51Z</time>
      </trkpt>
      <trkpt lat="50.28415" lon="1.74887">
        <ele>42.435</ele>
        <time>2014-07-14T06:51:00Z</time>
      </trkpt>
      <trkpt lat="50.28388" lon="1.74804">
        <ele>41.955</ele>
        <time>2014-07-14T06:51:09Z</time>
      </trkpt>
      <trkpt lat="50.2836" lon="1.7472">
        <ele>40.993</ele>
        <time>2014-07-14T06:51:18Z</time>
      </trkpt>
      <trkpt lat="50.28326" lon="1.74614">
        <ele>40.513</ele>
        <time>2014-07-14T06:51:29Z</time>
      </trkpt>
      <trkpt lat="50.28295" lon="1.74518">
        <ele>40.032</ele>
        <time>2014-07-14T06:51:39Z</time>
      </trkpt>
      <trkpt lat="50.28261" lon="1.74415">
        <ele>39.551</ele>
        <time>2014-07-14T06:51:50Z</time>
      </trkpt>
      <trkpt lat="50.28235" lon="1.74337">
        <ele>39.551</ele>
        <time>2014-07-14T06:51:59Z</time>
      </trkpt>
      <trkpt lat="50.28236" lon="1.74302">
        <ele>40.032</ele>
        <time>2014-07-14T06:52:03Z</time>
      </trkpt>
      <trkpt lat="50.28245" lon="1.74303">
        <ele>40.032</ele>
        <time>2014-07-14T06:52:06Z</time>
      </trkpt>
      <trkpt lat="50.28296" lon="1.7431">
        <ele>39.551</ele>
        <time>2014-07-14T06:52:15Z</time>
      </trkpt>
      <trkpt lat="50.28368" lon="1.7432">
        <ele>40.513</ele>
        <time>2014-07-14T06:52:26Z</time>
      </trkpt>
      <trkpt lat="50.28438" lon="1.74331">
        <ele>41.474</ele>
        <time>2014-07-14T06:52:37Z</time>
      </trkpt>
      <trkpt lat="50.28523" lon="1.74343">
        <ele>42.916</ele>
        <time>2014-07-14T06:52:50Z</time>
      </trkpt>
      <trkpt lat="50.28589" lon="1.74353">
        <ele>43.397</ele>
        <time>2014-07-14T06:53:00Z</time>
      </trkpt>
      <trkpt lat="50.28653" lon="1.74363">
        <ele>43.397</ele>
        <time>2014-07-14T06:53:10Z</time>
      </trkpt>
      <trkpt lat="50.28712" lon="1.74372">
        <ele>43.877</ele>
        <time>2014-07-14T06:53:19Z</time>
      </trkpt>
      <trkpt lat="50.28804" lon="1.74385">
        <ele>43.397</ele>
        <time>2014-07-14T06:53:33Z</time>
      </trkpt>
      <trkpt lat="50.28849" lon="1.74392">
        <ele>43.397</ele>
        <time>2014-07-14T06:53:40Z</time>
      </trkpt>
      <trkpt lat="50.28914" lon="1.74402">
        <ele>43.397</ele>
        <time>2014-07-14T06:53:50Z</time>
      </trkpt>
      <trkpt lat="50.28934" lon="1.74405">
        <ele>43.397</ele>
        <time>2014-07-14T06:53:53Z</time>
      </trkpt>
      <trkpt lat="50.28984" lon="1.74413">
        <ele>43.877</ele>
        <time>2014-07-14T06:54:01Z</time>
      </trkpt>
      <trkpt lat="50.2899" lon="1.74414">
        <ele>43.877</ele>
        <time>2014-07-14T06:54:02Z</time>
      </trkpt>
      <trkpt lat="50.29009" lon="1.74404">
        <ele>43.397</ele>
        <time>2014-07-14T06:54:06Z</time>
      </trkpt>
      <trkpt lat="50.29009" lon="1.74389">
        <ele>42.916</ele>
        <time>2014-07-14T06:54:08Z</time>
      </trkpt>
      <trkpt lat="50.29009" lon="1.74275">
        <ele>42.435</ele>
        <time>2014-07-14T06:54:20Z</time>
      </trkpt>
      <trkpt lat="50.29008" lon="1.74198">
        <ele>41.955</ele>
        <time>2014-07-14T06:54:28Z</time>
      </trkpt>
      <trkpt lat="50.29004" lon="1.74121">
        <ele>42.435</ele>
        <time>2014-07-14T06:54:36Z</time>
      </trkpt>
      <trkpt lat="50.28994" lon="1.74045">
        <ele>40.993</ele>
        <time>2014-07-14T06:54:44Z</time>
      </trkpt>
      <trkpt lat="50.28981" lon="1.73959">
        <ele>40.993</ele>
        <time>2014-07-14T06:54:53Z</time>
      </trkpt>
      <trkpt lat="50.28972" lon="1.73887">
        <ele>40.032</ele>
        <time>2014-07-14T06:55:01Z</time>
      </trkpt>
      <trkpt lat="50.28963" lon="1.73811">
        <ele>39.551</ele>
        <time>2014-07-14T06:55:09Z</time>
      </trkpt>
      <trkpt lat="50.28961" lon="1.73802">
        <ele>39.551</ele>
        <time>2014-07-14T06:55:10Z</time>
      </trkpt>
      <trkpt lat="50.28938" lon="1.73746">
        <ele>39.071</ele>
        <time>2014-07-14T06:55:17Z</time>
      </trkpt>
      <trkpt lat="50.28905" lon="1.73671">
        <ele>40.032</ele>
        <time>2014-07-14T06:55:26Z</time>
      </trkpt>
      <trkpt lat="50.28884" lon="1.73622">
        <ele>39.551</ele>
        <time>2014-07-14T06:55:32Z</time>
      </trkpt>
      <trkpt lat="50.28851" lon="1.73547">
        <ele>40.513</ele>
        <time>2014-07-14T06:55:41Z</time>
      </trkpt>
      <trkpt lat="50.2881" lon="1.73469">
        <ele>38.59</ele>
        <time>2014-07-14T06:55:51Z</time>
      </trkpt>
      <trkpt lat="50.28772" lon="1.73384">
        <ele>37.629</ele>
        <time>2014-07-14T06:56:01Z</time>
      </trkpt>
      <trkpt lat="50.28744" lon="1.73315">
        <ele>38.109</ele>
        <time>2014-07-14T06:56:09Z</time>
      </trkpt>
      <trkpt lat="50.28712" lon="1.73238">
        <ele>39.071</ele>
        <time>2014-07-14T06:56:18Z</time>
      </trkpt>
      <trkpt lat="50.28688" lon="1.7318">
        <ele>40.513</ele>
        <time>2014-07-14T06:56:25Z</time>
      </trkpt>
      <trkpt lat="50.28657" lon="1.73109">
        <ele>39.551</ele>
        <time>2014-07-14T06:56:34Z</time>
      </trkpt>
      <trkpt lat="50.28633" lon="1.7306">
        <ele>38.109</ele>
        <time>2014-07-14T06:56:40Z</time>
      </trkpt>
      <trkpt lat="50.28621" lon="1.73041">
        <ele>37.629</ele>
        <time>2014-07-14T06:56:43Z</time>
      </trkpt>
      <trkpt lat="50.28622" lon="1.73022">
        <ele>37.148</ele>
        <time>2014-07-14T06:56:47Z</time>
      </trkpt>
      <trkpt lat="50.28627" lon="1.73023">
        <ele>37.148</ele>
        <time>2014-07-14T06:56:49Z</time>
      </trkpt>
      <trkpt lat="50.28642" lon="1.7303">
        <ele>37.148</ele>
        <time>2014-07-14T06:56:54Z</time>
      </trkpt>
      <trkpt lat="50.28645" lon="1.73032">
        <ele>37.148</ele>
        <time>2014-07-14T06:56:55Z</time>
      </trkpt>
      <trkpt lat="50.28676" lon="1.73052">
        <ele>37.148</ele>
        <time>2014-07-14T06:57:02Z</time>
      </trkpt>
      <trkpt lat="50.28734" lon="1.73086">
        <ele>35.706</ele>
        <time>2014-07-14T06:57:13Z</time>
      </trkpt>
      <trkpt lat="50.28773" lon="1.73107">
        <ele>35.706</ele>
        <time>2014-07-14T06:57:20Z</time>
      </trkpt>
      <trkpt lat="50.2881" lon="1.73106">
        <ele>36.187</ele>
        <time>2014-07-14T06:57:26Z</time>
      </trkpt>
      <trkpt lat="50.28853" lon="1.73095">
        <ele>36.187</ele>
        <time>2014-07-14T06:57:33Z</time>
      </trkpt>
      <trkpt lat="50.2887" lon="1.7309">
        <ele>35.706</ele>
        <time>2014-07-14T06:57:36Z</time>
      </trkpt>
      <trkpt lat="50.28886" lon="1.7308">
        <ele>35.225</ele>
        <time>2014-07-14T06:57:40Z</time>
      </trkpt>
      <trkpt lat="50.28883" lon="1.73069">
        <ele>35.225</ele>
        <time>2014-07-14T06:57:42Z</time>
      </trkpt>
      <trkpt lat="50.2887" lon="1.73014">
        <ele>35.225</ele>
        <time>2014-07-14T06:57:49Z</time>
      </trkpt>
      <trkpt lat="50.28847" lon="1.72924">
        <ele>35.706</ele>
        <time>2014-07-14T06:57:59Z</time>
      </trkpt>
      <trkpt lat="50.28827" lon="1.7284">
        <ele>36.187</ele>
        <time>2014-07-14T06:58:08Z</time>
      </trkpt>
      <trkpt lat="50.28805" lon="1.72758">
        <ele>36.667</ele>
        <time>2014-07-14T06:58:17Z</time>
      </trkpt>
      <trkpt lat="50.28781" lon="1.72668">
        <ele>37.148</ele>
        <time>2014-07-14T06:58:27Z</time>
      </trkpt>
      <trkpt lat="50.28759" lon="1.72586">
        <ele>37.629</ele>
        <time>2014-07-14T06:58:36Z</time>
      </trkpt>
      <trkpt lat="50.28733" lon="1.72484">
        <ele>38.109</ele>
        <time>2014-07-14T06:58:47Z</time>
      </trkpt>
      <trkpt lat="50.28711" lon="1.72399">
        <ele>38.109</ele>
        <time>2014-07-14T06:58:56Z</time>
      </trkpt>
      <trkpt lat="50.28689" lon="1.72323">
        <ele>38.109</ele>
        <time>2014-07-14T06:59:04Z</time>
      </trkpt>
      <trkpt lat="50.28657" lon="1.72222">
        <ele>38.59</ele>
        <time>2014-07-14T06:59:15Z</time>
      </trkpt>
      <trkpt lat="50.28632" lon="1.72139">
        <ele>38.59</ele>
        <time>2014-07-14T06:59:24Z</time>
      </trkpt>
      <trkpt lat="50.28611" lon="1.72063">
        <ele>38.109</ele>
        <time>2014-07-14T06:59:32Z</time>
      </trkpt>
      <trkpt lat="50.28593" lon="1.71996">
        <ele>38.109</ele>
        <time>2014-07-14T06:59:39Z</time>
      </trkpt>
      <trkpt lat="50.28567" lon="1.71941">
        <ele>38.109</ele>
        <time>2014-07-14T06:59:46Z</time>
      </trkpt>
      <trkpt lat="50.28562" lon="1.71933">
        <ele>38.109</ele>
        <time>2014-07-14T06:59:47Z</time>
      </trkpt>
      <trkpt lat="50.2854" lon="1.71871">
        <ele>37.629</ele>
        <time>2014-07-14T06:59:54Z</time>
      </trkpt>
      <trkpt lat="50.28508" lon="1.7177">
        <ele>36.667</ele>
        <time>2014-07-14T07:00:05Z</time>
      </trkpt>
      <trkpt lat="50.28481" lon="1.71685">
        <ele>35.706</ele>
        <time>2014-07-14T07:00:14Z</time>
      </trkpt>
      <trkpt lat="50.2845" lon="1.71589">
        <ele>34.745</ele>
        <time>2014-07-14T07:00:24Z</time>
      </trkpt>
      <trkpt lat="50.28422" lon="1.71499">
        <ele>33.783</ele>
        <time>2014-07-14T07:00:33Z</time>
      </trkpt>
      <trkpt lat="50.28398" lon="1.71425">
        <ele>33.303</ele>
        <time>2014-07-14T07:00:40Z</time>
      </trkpt>
      <trkpt lat="50.28367" lon="1.71314">
        <ele>32.342</ele>
        <time>2014-07-14T07:00:50Z</time>
      </trkpt>
      <trkpt lat="50.28352" lon="1.71233">
        <ele>30.9</ele>
        <time>2014-07-14T07:00:57Z</time>
      </trkpt>
      <trkpt lat="50.28331" lon="1.71122">
        <ele>28.977</ele>
        <time>2014-07-14T07:01:07Z</time>
      </trkpt>
      <trkpt lat="50.28317" lon="1.71043">
        <ele>28.016</ele>
        <time>2014-07-14T07:01:14Z</time>
      </trkpt>
      <trkpt lat="50.28297" lon="1.70931">
        <ele>26.574</ele>
        <time>2014-07-14T07:01:24Z</time>
      </trkpt>
      <trkpt lat="50.28279" lon="1.70829">
        <ele>25.612</ele>
        <time>2014-07-14T07:01:33Z</time>
      </trkpt>
      <trkpt lat="50.28264" lon="1.70703">
        <ele>23.69</ele>
        <time>2014-07-14T07:01:44Z</time>
      </trkpt>
      <trkpt lat="50.28248" lon="1.70565">
        <ele>21.767</ele>
        <time>2014-07-14T07:01:56Z</time>
      </trkpt>
      <trkpt lat="50.28232" lon="1.70428">
        <ele>20.325</ele>
        <time>2014-07-14T07:02:08Z</time>
      </trkpt>
      <trkpt lat="50.28221" lon="1.70338">
        <ele>19.364</ele>
        <time>2014-07-14T07:02:16Z</time>
      </trkpt>
      <trkpt lat="50.28193" lon="1.70247">
        <ele>18.883</ele>
        <time>2014-07-14T07:02:25Z</time>
      </trkpt>
      <trkpt lat="50.28167" lon="1.70181">
        <ele>18.402</ele>
        <time>2014-07-14T07:02:32Z</time>
      </trkpt>
      <trkpt lat="50.28124" lon="1.70092">
        <ele>17.922</ele>
        <time>2014-07-14T07:02:42Z</time>
      </trkpt>
      <trkpt lat="50.28083" lon="1.70003">
        <ele>17.441</ele>
        <time>2014-07-14T07:02:52Z</time>
      </trkpt>
      <trkpt lat="50.28062" lon="1.69947">
        <ele>16.96</ele>
        <time>2014-07-14T07:02:58Z</time>
      </trkpt>
      <trkpt lat="50.28043" lon="1.69877">
        <ele>16.48</ele>
        <time>2014-07-14T07:03:05Z</time>
      </trkpt>
      <trkpt lat="50.28023" lon="1.69791">
        <ele>15.518</ele>
        <time>2014-07-14T07:03:14Z</time>
      </trkpt>
      <trkpt lat="50.2801" lon="1.697">
        <ele>15.038</ele>
        <time>2014-07-14T07:03:23Z</time>
      </trkpt>
      <trkpt lat="50.28002" lon="1.696">
        <ele>14.557</ele>
        <time>2014-07-14T07:03:33Z</time>
      </trkpt>
      <trkpt lat="50.28002" lon="1.6957">
        <ele>14.076</ele>
        <time>2014-07-14T07:03:36Z</time>
      </trkpt>
      <trkpt lat="50.28012" lon="1.69482">
        <ele>13.596</ele>
        <time>2014-07-14T07:03:45Z</time>
      </trkpt>
      <trkpt lat="50.28002" lon="1.69425">
        <ele>13.596</ele>
        <time>2014-07-14T07:03:51Z</time>
      </trkpt>
      <trkpt lat="50.27988" lon="1.69337">
        <ele>13.596</ele>
        <time>2014-07-14T07:04:00Z</time>
      </trkpt>
      <trkpt lat="50.27977" lon="1.6928">
        <ele>14.076</ele>
        <time>2014-07-14T07:04:06Z</time>
      </trkpt>
      <trkpt lat="50.27953" lon="1.6921">
        <ele>14.557</ele>
        <time>2014-07-14T07:04:14Z</time>
      </trkpt>
      <trkpt lat="50.27926" lon="1.69137">
        <ele>14.557</ele>
        <time>2014-07-14T07:04:22Z</time>
      </trkpt>
      <trkpt lat="50.27902" lon="1.69074">
        <ele>14.557</ele>
        <time>2014-07-14T07:04:29Z</time>
      </trkpt>
      <trkpt lat="50.27877" lon="1.69016">
        <ele>14.557</ele>
        <time>2014-07-14T07:04:36Z</time>
      </trkpt>
      <trkpt lat="50.27857" lon="1.6898">
        <ele>15.038</ele>
        <time>2014-07-14T07:04:41Z</time>
      </trkpt>
      <trkpt lat="50.27835" lon="1.68956">
        <ele>15.038</ele>
        <time>2014-07-14T07:04:44Z</time>
      </trkpt>
      <trkpt lat="50.27818" lon="1.68939">
        <ele>15.518</ele>
        <time>2014-07-14T07:04:49Z</time>
      </trkpt>
      <trkpt lat="50.27814" lon="1.68933">
        <ele>15.038</ele>
        <time>2014-07-14T07:04:50Z</time>
      </trkpt>
      <trkpt lat="50.27803" lon="1.68909">
        <ele>15.038</ele>
        <time>2014-07-14T07:04:56Z</time>
      </trkpt>
      <trkpt lat="50.27789" lon="1.68863">
        <ele>15.999</ele>
        <time>2014-07-14T07:05:03Z</time>
      </trkpt>
      <trkpt lat="50.27788" lon="1.68838">
        <ele>15.999</ele>
        <time>2014-07-14T07:05:06Z</time>
      </trkpt>
      <trkpt lat="50.27775" lon="1.68793">
        <ele>16.48</ele>
        <time>2014-07-14T07:05:12Z</time>
      </trkpt>
      <trkpt lat="50.27752" lon="1.68735">
        <ele>16.96</ele>
        <time>2014-07-14T07:05:20Z</time>
      </trkpt>
      <trkpt lat="50.27722" lon="1.68671">
        <ele>17.441</ele>
        <time>2014-07-14T07:05:29Z</time>
      </trkpt>
      <trkpt lat="50.27683" lon="1.68591">
        <ele>17.441</ele>
        <time>2014-07-14T07:05:40Z</time>
      </trkpt>
      <trkpt lat="50.27655" lon="1.68532">
        <ele>17.441</ele>
        <time>2014-07-14T07:05:48Z</time>
      </trkpt>
      <trkpt lat="50.27624" lon="1.68468">
        <ele>17.922</ele>
        <time>2014-07-14T07:05:57Z</time>
      </trkpt>
      <trkpt lat="50.27593" lon="1.68399">
        <ele>17.441</ele>
        <time>2014-07-14T07:06:06Z</time>
      </trkpt>
      <trkpt lat="50.27567" lon="1.68346">
        <ele>17.441</ele>
        <time>2014-07-14T07:06:13Z</time>
      </trkpt>
      <trkpt lat="50.27523" lon="1.68269">
        <ele>17.922</ele>
        <time>2014-07-14T07:06:24Z</time>
      </trkpt>
      <trkpt lat="50.27487" lon="1.68208">
        <ele>18.883</ele>
        <time>2014-07-14T07:06:33Z</time>
      </trkpt>
      <trkpt lat="50.27456" lon="1.68152">
        <ele>19.364</ele>
        <time>2014-07-14T07:06:41Z</time>
      </trkpt>
      <trkpt lat="50.27431" lon="1.6811">
        <ele>19.364</ele>
        <time>2014-07-14T07:06:47Z</time>
      </trkpt>
      <trkpt lat="50.27391" lon="1.68042">
        <ele>19.364</ele>
        <time>2014-07-14T07:06:57Z</time>
      </trkpt>
      <trkpt lat="50.2735" lon="1.67968">
        <ele>18.883</ele>
        <time>2014-07-14T07:07:07Z</time>
      </trkpt>
      <trkpt lat="50.2732" lon="1.67921">
        <ele>18.402</ele>
        <time>2014-07-14T07:07:14Z</time>
      </trkpt>
      <trkpt lat="50.27275" lon="1.6786">
        <ele>17.441</ele>
        <time>2014-07-14T07:07:23Z</time>
      </trkpt>
      <trkpt lat="50.27234" lon="1.67805">
        <ele>15.999</ele>
        <time>2014-07-14T07:07:31Z</time>
      </trkpt>
      <trkpt lat="50.27215" lon="1.67776">
        <ele>15.518</ele>
        <time>2014-07-14T07:07:35Z</time>
      </trkpt>
      <trkpt lat="50.27202" lon="1.67704">
        <ele>14.557</ele>
        <time>2014-07-14T07:07:43Z</time>
      </trkpt>
      <trkpt lat="50.27199" lon="1.67684">
        <ele>14.076</ele>
        <time>2014-07-14T07:07:45Z</time>
      </trkpt>
      <trkpt lat="50.27185" lon="1.67608">
        <ele>14.557</ele>
        <time>2014-07-14T07:07:53Z</time>
      </trkpt>
      <trkpt lat="50.2717" lon="1.67533">
        <ele>14.557</ele>
        <time>2014-07-14T07:08:01Z</time>
      </trkpt>
      <trkpt lat="50.27163" lon="1.67495">
        <ele>15.038</ele>
        <time>2014-07-14T07:08:05Z</time>
      </trkpt>
      <trkpt lat="50.27164" lon="1.67451">
        <ele>14.557</ele>
        <time>2014-07-14T07:08:09Z</time>
      </trkpt>
      <trkpt lat="50.27176" lon="1.67424">
        <ele>14.076</ele>
        <time>2014-07-14T07:08:14Z</time>
      </trkpt>
      <trkpt lat="50.27179" lon="1.67411">
        <ele>13.596</ele>
        <time>2014-07-14T07:08:16Z</time>
      </trkpt>
      <trkpt lat="50.27187" lon="1.67355">
        <ele>13.115</ele>
        <time>2014-07-14T07:08:23Z</time>
      </trkpt>
      <trkpt lat="50.2719" lon="1.67349">
        <ele>12.634</ele>
        <time>2014-07-14T07:08:27Z</time>
      </trkpt>
      <trkpt lat="50.27193" lon="1.6734">
        <ele>13.115</ele>
        <time>2014-07-14T07:08:44Z</time>
      </trkpt>
      <trkpt lat="50.27193" lon="1.67336">
        <ele>13.115</ele>
        <time>2014-07-14T07:08:45Z</time>
      </trkpt>
      <trkpt lat="50.27197" lon="1.67322">
        <ele>12.154</ele>
        <time>2014-07-14T07:08:49Z</time>
      </trkpt>
      <trkpt lat="50.27214" lon="1.67266">
        <ele>13.115</ele>
        <time>2014-07-14T07:08:58Z</time>
      </trkpt>
      <trkpt lat="50.27154" lon="1.67146">
        <ele>12.634</ele>
        <time>2014-07-14T07:09:06Z</time>
      </trkpt>
      <trkpt lat="50.27159" lon="1.67107">
        <ele>11.673</ele>
        <time>2014-07-14T07:09:10Z</time>
      </trkpt>
      <trkpt lat="50.27183" lon="1.67045">
        <ele>10.231</ele>
        <time>2014-07-14T07:09:18Z</time>
      </trkpt>
      <trkpt lat="50.2721" lon="1.66989">
        <ele>10.231</ele>
        <time>2014-07-14T07:09:26Z</time>
      </trkpt>
      <trkpt lat="50.27217" lon="1.66979">
        <ele>10.231</ele>
        <time>2014-07-14T07:09:28Z</time>
      </trkpt>
      <trkpt lat="50.27229" lon="1.66987">
        <ele>11.673</ele>
        <time>2014-07-14T07:09:32Z</time>
      </trkpt>
      <trkpt lat="50.27267" lon="1.67031">
        <ele>22.728</ele>
        <time>2014-07-14T07:09:43Z</time>
      </trkpt>
      <trkpt lat="50.27275" lon="1.67038">
        <ele>21.286</ele>
        <time>2014-07-14T07:09:49Z</time>
      </trkpt>
      <trkpt lat="50.27276" lon="1.67033">
        <ele>18.402</ele>
        <time>2014-07-14T07:09:53Z</time>
      </trkpt>
      <trkpt lat="50.27274" lon="1.67043">
        <ele>16.96</ele>
        <time>2014-07-14T07:09:57Z</time>
      </trkpt>
      <trkpt lat="50.27276" lon="1.67033">
        <ele>17.441</ele>
        <time>2014-07-14T07:09:58Z</time>
      </trkpt>
      <trkpt lat="50.27278" lon="1.67017">
        <ele>18.883</ele>
        <time>2014-07-14T07:10:05Z</time>
      </trkpt>
      <trkpt lat="50.27185" lon="1.67039">
        <ele>17.441</ele>
        <time>2014-07-14T07:10:10Z</time>
      </trkpt>
      <trkpt lat="50.27178" lon="1.67031">
        <ele>15.518</ele>
        <time>2014-07-14T07:10:16Z</time>
      </trkpt>
      <trkpt lat="50.27174" lon="1.67026">
        <ele>15.038</ele>
        <time>2014-07-14T07:10:20Z</time>
      </trkpt>
      <trkpt lat="50.27203" lon="1.66956">
        <ele>14.557</ele>
        <time>2014-07-14T07:10:39Z</time>
      </trkpt>
      <trkpt lat="50.27231" lon="1.66904">
        <ele>14.557</ele>
        <time>2014-07-14T07:10:46Z</time>
      </trkpt>
      <trkpt lat="50.27255" lon="1.66862">
        <ele>15.518</ele>
        <time>2014-07-14T07:10:53Z</time>
      </trkpt>
      <trkpt lat="50.27283" lon="1.66827">
        <ele>15.518</ele>
        <time>2014-07-14T07:11:00Z</time>
      </trkpt>
      <trkpt lat="50.27295" lon="1.66813">
        <ele>14.557</ele>
        <time>2014-07-14T07:11:03Z</time>
      </trkpt>
      <trkpt lat="50.27304" lon="1.66802">
        <ele>15.518</ele>
        <time>2014-07-14T07:11:09Z</time>
      </trkpt>
      <trkpt lat="50.27327" lon="1.6675">
        <ele>15.999</ele>
        <time>2014-07-14T07:11:16Z</time>
      </trkpt>
      <trkpt lat="50.27334" lon="1.66748">
        <ele>15.518</ele>
        <time>2014-07-14T07:11:20Z</time>
      </trkpt>
      <trkpt lat="50.27334" lon="1.66759">
        <ele>14.557</ele>
        <time>2014-07-14T07:11:24Z</time>
      </trkpt>
      <trkpt lat="50.27333" lon="1.66768">
        <ele>15.038</ele>
        <time>2014-07-14T07:11:29Z</time>
      </trkpt>
      <trkpt lat="50.27326" lon="1.66782">
        <ele>17.441</ele>
        <time>2014-07-14T07:15:48Z</time>
      </trkpt>
      <trkpt lat="50.27325" lon="1.66787">
        <ele>17.441</ele>
        <time>2014-07-14T07:15:49Z</time>
      </trkpt>
      <trkpt lat="50.27304" lon="1.66802">
        <ele>18.402</ele>
        <time>2014-07-14T07:15:54Z</time>
      </trkpt>
      <trkpt lat="50.27259" lon="1.66856">
        <ele>18.883</ele>
        <time>2014-07-14T07:16:03Z</time>
      </trkpt>
      <trkpt lat="50.27231" lon="1.66905">
        <ele>17.441</ele>
        <time>2014-07-14T07:16:10Z</time>
      </trkpt>
      <trkpt lat="50.27203" lon="1.66956">
        <ele>16.96</ele>
        <time>2014-07-14T07:16:18Z</time>
      </trkpt>
      <trkpt lat="50.27167" lon="1.67027">
        <ele>15.518</ele>
        <time>2014-07-14T07:16:26Z</time>
      </trkpt>
      <trkpt lat="50.27141" lon="1.67091">
        <ele>14.557</ele>
        <time>2014-07-14T07:16:34Z</time>
      </trkpt>
      <trkpt lat="50.2713" lon="1.67123">
        <ele>15.038</ele>
        <time>2014-07-14T07:16:38Z</time>
      </trkpt>
      <trkpt lat="50.27121" lon="1.67144">
        <ele>14.076</ele>
        <time>2014-07-14T07:16:42Z</time>
      </trkpt>
      <trkpt lat="50.27113" lon="1.67129">
        <ele>13.115</ele>
        <time>2014-07-14T07:16:45Z</time>
      </trkpt>
      <trkpt lat="50.2711" lon="1.67073">
        <ele>12.634</ele>
        <time>2014-07-14T07:16:52Z</time>
      </trkpt>
      <trkpt lat="50.27106" lon="1.67001">
        <ele>12.154</ele>
        <time>2014-07-14T07:17:00Z</time>
      </trkpt>
      <trkpt lat="50.27105" lon="1.66983">
        <ele>12.154</ele>
        <time>2014-07-14T07:17:02Z</time>
      </trkpt>
      <trkpt lat="50.27105" lon="1.66947">
        <ele>12.154</ele>
        <time>2014-07-14T07:17:07Z</time>
      </trkpt>
      <trkpt lat="50.27094" lon="1.66945">
        <ele>12.634</ele>
        <time>2014-07-14T07:17:10Z</time>
      </trkpt>
      <trkpt lat="50.27105" lon="1.66942">
        <ele>15.038</ele>
        <time>2014-07-14T07:19:24Z</time>
      </trkpt>
      <trkpt lat="50.27107" lon="1.66926">
        <ele>14.557</ele>
        <time>2014-07-14T07:19:31Z</time>
      </trkpt>
      <trkpt lat="50.27108" lon="1.66922">
        <ele>14.557</ele>
        <time>2014-07-14T07:19:32Z</time>
      </trkpt>
      <trkpt lat="50.27114" lon="1.66883">
        <ele>14.557</ele>
        <time>2014-07-14T07:19:38Z</time>
      </trkpt>
      <trkpt lat="50.27124" lon="1.66829">
        <ele>14.557</ele>
        <time>2014-07-14T07:19:44Z</time>
      </trkpt>
      <trkpt lat="50.2715" lon="1.66755">
        <ele>15.038</ele>
        <time>2014-07-14T07:19:52Z</time>
      </trkpt>
      <trkpt lat="50.27169" lon="1.66699">
        <ele>14.076</ele>
        <time>2014-07-14T07:19:59Z</time>
      </trkpt>
      <trkpt lat="50.27175" lon="1.66675">
        <ele>12.634</ele>
        <time>2014-07-14T07:20:03Z</time>
      </trkpt>
      <trkpt lat="50.27167" lon="1.66662">
        <ele>12.634</ele>
        <time>2014-07-14T07:20:07Z</time>
      </trkpt>
      <trkpt lat="50.27156" lon="1.6666">
        <ele>12.634</ele>
        <time>2014-07-14T07:20:09Z</time>
      </trkpt>
      <trkpt lat="50.27105" lon="1.66645">
        <ele>12.634</ele>
        <time>2014-07-14T07:20:17Z</time>
      </trkpt>
      <trkpt lat="50.27086" lon="1.66639">
        <ele>12.634</ele>
        <time>2014-07-14T07:20:20Z</time>
      </trkpt>
      <trkpt lat="50.27066" lon="1.6662">
        <ele>11.673</ele>
        <time>2014-07-14T07:20:24Z</time>
      </trkpt>
      <trkpt lat="50.27059" lon="1.66606">
        <ele>11.673</ele>
        <time>2014-07-14T07:20:26Z</time>
      </trkpt>
      <trkpt lat="50.27034" lon="1.66555">
        <ele>12.634</ele>
        <time>2014-07-14T07:20:34Z</time>
      </trkpt>
      <trkpt lat="50.27031" lon="1.66547">
        <ele>12.634</ele>
        <time>2014-07-14T07:20:35Z</time>
      </trkpt>
      <trkpt lat="50.27011" lon="1.66461">
        <ele>12.634</ele>
        <time>2014-07-14T07:20:45Z</time>
      </trkpt>
      <trkpt lat="50.26996" lon="1.66412">
        <ele>12.154</ele>
        <time>2014-07-14T07:20:51Z</time>
      </trkpt>
      <trkpt lat="50.26988" lon="1.66397">
        <ele>12.154</ele>
        <time>2014-07-14T07:20:53Z</time>
      </trkpt>
      <trkpt lat="50.26975" lon="1.66361">
        <ele>11.193</ele>
        <time>2014-07-14T07:20:57Z</time>
      </trkpt>
      <trkpt lat="50.26972" lon="1.66312">
        <ele>10.231</ele>
        <time>2014-07-14T07:21:01Z</time>
      </trkpt>
      <trkpt lat="50.26974" lon="1.663">
        <ele>10.231</ele>
        <time>2014-07-14T07:21:02Z</time>
      </trkpt>
      <trkpt lat="50.26992" lon="1.66213">
        <ele>10.231</ele>
        <time>2014-07-14T07:21:10Z</time>
      </trkpt>
      <trkpt lat="50.26999" lon="1.66115">
        <ele>9.751</ele>
        <time>2014-07-14T07:21:19Z</time>
      </trkpt>
      <trkpt lat="50.26996" lon="1.6604">
        <ele>11.673</ele>
        <time>2014-07-14T07:21:26Z</time>
      </trkpt>
      <trkpt lat="50.26994" lon="1.66018">
        <ele>10.712</ele>
        <time>2014-07-14T07:21:28Z</time>
      </trkpt>
      <trkpt lat="50.26998" lon="1.65965">
        <ele>10.712</ele>
        <time>2014-07-14T07:21:33Z</time>
      </trkpt>
      <trkpt lat="50.27004" lon="1.65945">
        <ele>10.712</ele>
        <time>2014-07-14T07:21:35Z</time>
      </trkpt>
      <trkpt lat="50.27033" lon="1.65876">
        <ele>10.231</ele>
        <time>2014-07-14T07:21:43Z</time>
      </trkpt>
      <trkpt lat="50.27049" lon="1.65823">
        <ele>10.231</ele>
        <time>2014-07-14T07:21:49Z</time>
      </trkpt>
      <trkpt lat="50.27063" lon="1.65751">
        <ele>10.712</ele>
        <time>2014-07-14T07:21:57Z</time>
      </trkpt>
      <trkpt lat="50.2706" lon="1.65698">
        <ele>10.712</ele>
        <time>2014-07-14T07:22:03Z</time>
      </trkpt>
      <trkpt lat="50.27036" lon="1.65612">
        <ele>9.751</ele>
        <time>2014-07-14T07:22:13Z</time>
      </trkpt>
      <trkpt lat="50.27031" lon="1.65596">
        <ele>9.751</ele>
        <time>2014-07-14T07:22:15Z</time>
      </trkpt>
      <trkpt lat="50.27012" lon="1.65563">
        <ele>9.27</ele>
        <time>2014-07-14T07:22:20Z</time>
      </trkpt>
      <trkpt lat="50.26991" lon="1.65551">
        <ele>9.751</ele>
        <time>2014-07-14T07:22:24Z</time>
      </trkpt>
      <trkpt lat="50.26973" lon="1.65549">
        <ele>10.231</ele>
        <time>2014-07-14T07:22:27Z</time>
      </trkpt>
      <trkpt lat="50.26941" lon="1.65538">
        <ele>10.231</ele>
        <time>2014-07-14T07:22:32Z</time>
      </trkpt>
      <trkpt lat="50.26935" lon="1.65515">
        <ele>10.231</ele>
        <time>2014-07-14T07:22:35Z</time>
      </trkpt>
      <trkpt lat="50.26935" lon="1.65496">
        <ele>10.231</ele>
        <time>2014-07-14T07:22:38Z</time>
      </trkpt>
      <trkpt lat="50.26936" lon="1.65494">
        <ele>10.231</ele>
        <time>2014-07-14T07:22:39Z</time>
      </trkpt>
      <trkpt lat="50.26936" lon="1.65489">
        <ele>10.712</ele>
        <time>2014-07-14T07:22:43Z</time>
      </trkpt>
      <trkpt lat="50.26938" lon="1.65473">
        <ele>11.193</ele>
        <time>2014-07-14T07:22:47Z</time>
      </trkpt>
      <trkpt lat="50.26936" lon="1.65451">
        <ele>11.193</ele>
        <time>2014-07-14T07:22:51Z</time>
      </trkpt>
      <trkpt lat="50.26933" lon="1.65437">
        <ele>11.193</ele>
        <time>2014-07-14T07:22:53Z</time>
      </trkpt>
      <trkpt lat="50.26927" lon="1.65391">
        <ele>10.231</ele>
        <time>2014-07-14T07:22:58Z</time>
      </trkpt>
      <trkpt lat="50.2693" lon="1.6532">
        <ele>10.231</ele>
        <time>2014-07-14T07:23:05Z</time>
      </trkpt>
      <trkpt lat="50.26924" lon="1.65264">
        <ele>10.712</ele>
        <time>2014-07-14T07:23:11Z</time>
      </trkpt>
      <trkpt lat="50.26913" lon="1.65185">
        <ele>11.193</ele>
        <time>2014-07-14T07:23:19Z</time>
      </trkpt>
      <trkpt lat="50.26909" lon="1.65119">
        <ele>11.193</ele>
        <time>2014-07-14T07:23:26Z</time>
      </trkpt>
      <trkpt lat="50.26897" lon="1.65045">
        <ele>11.193</ele>
        <time>2014-07-14T07:23:34Z</time>
      </trkpt>
      <trkpt lat="50.2688" lon="1.64965">
        <ele>11.673</ele>
        <time>2014-07-14T07:23:43Z</time>
      </trkpt>
      <trkpt lat="50.26859" lon="1.64886">
        <ele>11.673</ele>
        <time>2014-07-14T07:23:52Z</time>
      </trkpt>
      <trkpt lat="50.26844" lon="1.64823">
        <ele>11.193</ele>
        <time>2014-07-14T07:23:59Z</time>
      </trkpt>
      <trkpt lat="50.26844" lon="1.64765">
        <ele>11.193</ele>
        <time>2014-07-14T07:24:05Z</time>
      </trkpt>
      <trkpt lat="50.26844" lon="1.64739">
        <ele>11.193</ele>
        <time>2014-07-14T07:24:08Z</time>
      </trkpt>
      <trkpt lat="50.26834" lon="1.64679">
        <ele>10.712</ele>
        <time>2014-07-14T07:24:15Z</time>
      </trkpt>
      <trkpt lat="50.26813" lon="1.64607">
        <ele>10.712</ele>
        <time>2014-07-14T07:24:23Z</time>
      </trkpt>
      <trkpt lat="50.26802" lon="1.64531">
        <ele>10.712</ele>
        <time>2014-07-14T07:24:31Z</time>
      </trkpt>
      <trkpt lat="50.26801" lon="1.64434">
        <ele>10.231</ele>
        <time>2014-07-14T07:24:41Z</time>
      </trkpt>
      <trkpt lat="50.26795" lon="1.64369">
        <ele>10.231</ele>
        <time>2014-07-14T07:24:48Z</time>
      </trkpt>
      <trkpt lat="50.26778" lon="1.64286">
        <ele>10.231</ele>
        <time>2014-07-14T07:24:57Z</time>
      </trkpt>
      <trkpt lat="50.26772" lon="1.6421">
        <ele>10.712</ele>
        <time>2014-07-14T07:25:05Z</time>
      </trkpt>
      <trkpt lat="50.26766" lon="1.64126">
        <ele>11.193</ele>
        <time>2014-07-14T07:25:14Z</time>
      </trkpt>
      <trkpt lat="50.2676" lon="1.64057">
        <ele>11.673</ele>
        <time>2014-07-14T07:25:21Z</time>
      </trkpt>
      <trkpt lat="50.26751" lon="1.6399">
        <ele>11.673</ele>
        <time>2014-07-14T07:25:28Z</time>
      </trkpt>
      <trkpt lat="50.26733" lon="1.63895">
        <ele>11.673</ele>
        <time>2014-07-14T07:25:37Z</time>
      </trkpt>
      <trkpt lat="50.26715" lon="1.63803">
        <ele>10.712</ele>
        <time>2014-07-14T07:25:47Z</time>
      </trkpt>
      <trkpt lat="50.26706" lon="1.63725">
        <ele>11.193</ele>
        <time>2014-07-14T07:25:55Z</time>
      </trkpt>
      <trkpt lat="50.26698" lon="1.63656">
        <ele>12.634</ele>
        <time>2014-07-14T07:26:02Z</time>
      </trkpt>
      <trkpt lat="50.26685" lon="1.63591">
        <ele>14.076</ele>
        <time>2014-07-14T07:26:09Z</time>
      </trkpt>
      <trkpt lat="50.26663" lon="1.63529">
        <ele>13.596</ele>
        <time>2014-07-14T07:26:17Z</time>
      </trkpt>
      <trkpt lat="50.26637" lon="1.63458">
        <ele>13.115</ele>
        <time>2014-07-14T07:26:26Z</time>
      </trkpt>
      <trkpt lat="50.26617" lon="1.63394">
        <ele>13.115</ele>
        <time>2014-07-14T07:26:34Z</time>
      </trkpt>
      <trkpt lat="50.26599" lon="1.63318">
        <ele>12.634</ele>
        <time>2014-07-14T07:26:43Z</time>
      </trkpt>
      <trkpt lat="50.26588" lon="1.63244">
        <ele>12.154</ele>
        <time>2014-07-14T07:26:51Z</time>
      </trkpt>
      <trkpt lat="50.26583" lon="1.6317">
        <ele>12.154</ele>
        <time>2014-07-14T07:26:59Z</time>
      </trkpt>
      <trkpt lat="50.26586" lon="1.63094">
        <ele>11.673</ele>
        <time>2014-07-14T07:27:07Z</time>
      </trkpt>
      <trkpt lat="50.26595" lon="1.63014">
        <ele>11.193</ele>
        <time>2014-07-14T07:27:16Z</time>
      </trkpt>
      <trkpt lat="50.26607" lon="1.62944">
        <ele>11.193</ele>
        <time>2014-07-14T07:27:24Z</time>
      </trkpt>
      <trkpt lat="50.26616" lon="1.62893">
        <ele>11.673</ele>
        <time>2014-07-14T07:27:30Z</time>
      </trkpt>
      <trkpt lat="50.26613" lon="1.62864">
        <ele>12.154</ele>
        <time>2014-07-14T07:27:34Z</time>
      </trkpt>
      <trkpt lat="50.26609" lon="1.62859">
        <ele>12.634</ele>
        <time>2014-07-14T07:27:35Z</time>
      </trkpt>
      <trkpt lat="50.26566" lon="1.62832">
        <ele>13.596</ele>
        <time>2014-07-14T07:27:43Z</time>
      </trkpt>
      <trkpt lat="50.26501" lon="1.62792">
        <ele>14.076</ele>
        <time>2014-07-14T07:27:54Z</time>
      </trkpt>
      <trkpt lat="50.26443" lon="1.62758">
        <ele>14.557</ele>
        <time>2014-07-14T07:28:04Z</time>
      </trkpt>
      <trkpt lat="50.264" lon="1.62731">
        <ele>14.557</ele>
        <time>2014-07-14T07:28:11Z</time>
      </trkpt>
      <trkpt lat="50.26346" lon="1.62698">
        <ele>14.557</ele>
        <time>2014-07-14T07:28:20Z</time>
      </trkpt>
      <trkpt lat="50.26293" lon="1.62665">
        <ele>15.518</ele>
        <time>2014-07-14T07:28:29Z</time>
      </trkpt>
      <trkpt lat="50.26241" lon="1.62634">
        <ele>15.999</ele>
        <time>2014-07-14T07:28:38Z</time>
      </trkpt>
      <trkpt lat="50.26189" lon="1.62604">
        <ele>15.518</ele>
        <time>2014-07-14T07:28:47Z</time>
      </trkpt>
      <trkpt lat="50.2614" lon="1.6258">
        <ele>15.518</ele>
        <time>2014-07-14T07:28:56Z</time>
      </trkpt>
      <trkpt lat="50.26109" lon="1.62566">
        <ele>15.038</ele>
        <time>2014-07-14T07:29:02Z</time>
      </trkpt>
      <trkpt lat="50.26094" lon="1.6255">
        <ele>15.038</ele>
        <time>2014-07-14T07:29:06Z</time>
      </trkpt>
      <trkpt lat="50.26096" lon="1.62517">
        <ele>14.557</ele>
        <time>2014-07-14T07:29:10Z</time>
      </trkpt>
      <trkpt lat="50.261" lon="1.62462">
        <ele>13.596</ele>
        <time>2014-07-14T07:29:16Z</time>
      </trkpt>
      <trkpt lat="50.2609" lon="1.62393">
        <ele>12.154</ele>
        <time>2014-07-14T07:29:23Z</time>
      </trkpt>
      <trkpt lat="50.26072" lon="1.62306">
        <ele>11.193</ele>
        <time>2014-07-14T07:29:32Z</time>
      </trkpt>
      <trkpt lat="50.26062" lon="1.62253">
        <ele>11.193</ele>
        <time>2014-07-14T07:29:38Z</time>
      </trkpt>
      <trkpt lat="50.26062" lon="1.62201">
        <ele>10.231</ele>
        <time>2014-07-14T07:29:44Z</time>
      </trkpt>
      <trkpt lat="50.2606" lon="1.62172">
        <ele>9.27</ele>
        <time>2014-07-14T07:29:48Z</time>
      </trkpt>
      <trkpt lat="50.26048" lon="1.62171">
        <ele>9.27</ele>
        <time>2014-07-14T07:29:51Z</time>
      </trkpt>
      <trkpt lat="50.26012" lon="1.62171">
        <ele>8.789</ele>
        <time>2014-07-14T07:29:58Z</time>
      </trkpt>
      <trkpt lat="50.25961" lon="1.62185">
        <ele>8.309</ele>
        <time>2014-07-14T07:30:07Z</time>
      </trkpt>
      <trkpt lat="50.2592" lon="1.62196">
        <ele>8.309</ele>
        <time>2014-07-14T07:30:14Z</time>
      </trkpt>
      <trkpt lat="50.25871" lon="1.62204">
        <ele>8.309</ele>
        <time>2014-07-14T07:30:22Z</time>
      </trkpt>
      <trkpt lat="50.25822" lon="1.62209">
        <ele>8.789</ele>
        <time>2014-07-14T07:30:30Z</time>
      </trkpt>
      <trkpt lat="50.25767" lon="1.62213">
        <ele>8.789</ele>
        <time>2014-07-14T07:30:39Z</time>
      </trkpt>
      <trkpt lat="50.25719" lon="1.62211">
        <ele>8.309</ele>
        <time>2014-07-14T07:30:47Z</time>
      </trkpt>
      <trkpt lat="50.25657" lon="1.62207">
        <ele>8.789</ele>
        <time>2014-07-14T07:30:57Z</time>
      </trkpt>
      <trkpt lat="50.25601" lon="1.62202">
        <ele>9.27</ele>
        <time>2014-07-14T07:31:06Z</time>
      </trkpt>
      <trkpt lat="50.25545" lon="1.62196">
        <ele>9.27</ele>
        <time>2014-07-14T07:31:15Z</time>
      </trkpt>
      <trkpt lat="50.25494" lon="1.62192">
        <ele>9.27</ele>
        <time>2014-07-14T07:31:23Z</time>
      </trkpt>
      <trkpt lat="50.25438" lon="1.62187">
        <ele>10.231</ele>
        <time>2014-07-14T07:31:32Z</time>
      </trkpt>
      <trkpt lat="50.25432" lon="1.62187">
        <ele>10.231</ele>
        <time>2014-07-14T07:31:33Z</time>
      </trkpt>
      <trkpt lat="50.25397" lon="1.62176">
        <ele>10.231</ele>
        <time>2014-07-14T07:31:39Z</time>
      </trkpt>
      <trkpt lat="50.25339" lon="1.62132">
        <ele>11.193</ele>
        <time>2014-07-14T07:31:49Z</time>
      </trkpt>
      <trkpt lat="50.25279" lon="1.62093">
        <ele>11.193</ele>
        <time>2014-07-14T07:31:59Z</time>
      </trkpt>
      <trkpt lat="50.25218" lon="1.62054">
        <ele>11.193</ele>
        <time>2014-07-14T07:32:09Z</time>
      </trkpt>
      <trkpt lat="50.25163" lon="1.62023">
        <ele>11.193</ele>
        <time>2014-07-14T07:32:18Z</time>
      </trkpt>
      <trkpt lat="50.25107" lon="1.61995">
        <ele>10.712</ele>
        <time>2014-07-14T07:32:27Z</time>
      </trkpt>
      <trkpt lat="50.25051" lon="1.61969">
        <ele>10.231</ele>
        <time>2014-07-14T07:32:36Z</time>
      </trkpt>
      <trkpt lat="50.25001" lon="1.61945">
        <ele>10.231</ele>
        <time>2014-07-14T07:32:44Z</time>
      </trkpt>
      <trkpt lat="50.24946" lon="1.61915">
        <ele>10.231</ele>
        <time>2014-07-14T07:32:53Z</time>
      </trkpt>
      <trkpt lat="50.24909" lon="1.61876">
        <ele>10.712</ele>
        <time>2014-07-14T07:33:00Z</time>
      </trkpt>
      <trkpt lat="50.24866" lon="1.61816">
        <ele>10.712</ele>
        <time>2014-07-14T07:33:09Z</time>
      </trkpt>
      <trkpt lat="50.24827" lon="1.61754">
        <ele>10.231</ele>
        <time>2014-07-14T07:33:18Z</time>
      </trkpt>
      <trkpt lat="50.24775" lon="1.61673">
        <ele>9.751</ele>
        <time>2014-07-14T07:33:30Z</time>
      </trkpt>
      <trkpt lat="50.24749" lon="1.6163">
        <ele>9.751</ele>
        <time>2014-07-14T07:33:37Z</time>
      </trkpt>
      <trkpt lat="50.24745" lon="1.61624">
        <ele>9.751</ele>
        <time>2014-07-14T07:33:38Z</time>
      </trkpt>
      <trkpt lat="50.24734" lon="1.61602">
        <ele>9.751</ele>
        <time>2014-07-14T07:33:42Z</time>
      </trkpt>
      <trkpt lat="50.24738" lon="1.61584">
        <ele>10.231</ele>
        <time>2014-07-14T07:33:45Z</time>
      </trkpt>
      <trkpt lat="50.24766" lon="1.6157">
        <ele>9.751</ele>
        <time>2014-07-14T07:33:51Z</time>
      </trkpt>
      <trkpt lat="50.24794" lon="1.61544">
        <ele>9.27</ele>
        <time>2014-07-14T07:33:57Z</time>
      </trkpt>
      <trkpt lat="50.2482" lon="1.6148">
        <ele>9.27</ele>
        <time>2014-07-14T07:34:05Z</time>
      </trkpt>
      <trkpt lat="50.24853" lon="1.61388">
        <ele>9.751</ele>
        <time>2014-07-14T07:34:16Z</time>
      </trkpt>
      <trkpt lat="50.24878" lon="1.61324">
        <ele>9.751</ele>
        <time>2014-07-14T07:34:24Z</time>
      </trkpt>
      <trkpt lat="50.24903" lon="1.61259">
        <ele>10.712</ele>
        <time>2014-07-14T07:34:32Z</time>
      </trkpt>
      <trkpt lat="50.24928" lon="1.61194">
        <ele>10.712</ele>
        <time>2014-07-14T07:34:40Z</time>
      </trkpt>
      <trkpt lat="50.24939" lon="1.61161">
        <ele>10.231</ele>
        <time>2014-07-14T07:34:44Z</time>
      </trkpt>
      <trkpt lat="50.24945" lon="1.61118">
        <ele>10.712</ele>
        <time>2014-07-14T07:34:49Z</time>
      </trkpt>
      <trkpt lat="50.24937" lon="1.61023">
        <ele>11.673</ele>
        <time>2014-07-14T07:34:59Z</time>
      </trkpt>
      <trkpt lat="50.2493" lon="1.60935">
        <ele>15.038</ele>
        <time>2014-07-14T07:35:08Z</time>
      </trkpt>
      <trkpt lat="50.24925" lon="1.60866">
        <ele>13.115</ele>
        <time>2014-07-14T07:35:15Z</time>
      </trkpt>
      <trkpt lat="50.24921" lon="1.60797">
        <ele>11.673</ele>
        <time>2014-07-14T07:35:22Z</time>
      </trkpt>
      <trkpt lat="50.24907" lon="1.60754">
        <ele>11.193</ele>
        <time>2014-07-14T07:35:27Z</time>
      </trkpt>
      <trkpt lat="50.24872" lon="1.60697">
        <ele>10.712</ele>
        <time>2014-07-14T07:35:35Z</time>
      </trkpt>
      <trkpt lat="50.24823" lon="1.60619">
        <ele>9.751</ele>
        <time>2014-07-14T07:35:46Z</time>
      </trkpt>
      <trkpt lat="50.24777" lon="1.60547">
        <ele>9.751</ele>
        <time>2014-07-14T07:35:56Z</time>
      </trkpt>
      <trkpt lat="50.24732" lon="1.60473">
        <ele>10.231</ele>
        <time>2014-07-14T07:36:06Z</time>
      </trkpt>
      <trkpt lat="50.24706" lon="1.60431">
        <ele>10.712</ele>
        <time>2014-07-14T07:36:12Z</time>
      </trkpt>
      <trkpt lat="50.24695" lon="1.60398">
        <ele>9.751</ele>
        <time>2014-07-14T07:36:16Z</time>
      </trkpt>
      <trkpt lat="50.24697" lon="1.60368">
        <ele>9.27</ele>
        <time>2014-07-14T07:36:19Z</time>
      </trkpt>
      <trkpt lat="50.24718" lon="1.60277">
        <ele>8.309</ele>
        <time>2014-07-14T07:36:29Z</time>
      </trkpt>
      <trkpt lat="50.24738" lon="1.60192">
        <ele>8.309</ele>
        <time>2014-07-14T07:36:38Z</time>
      </trkpt>
      <trkpt lat="50.24759" lon="1.601">
        <ele>8.789</ele>
        <time>2014-07-14T07:36:48Z</time>
      </trkpt>
      <trkpt lat="50.24776" lon="1.60027">
        <ele>9.751</ele>
        <time>2014-07-14T07:36:56Z</time>
      </trkpt>
      <trkpt lat="50.24797" lon="1.59938">
        <ele>8.789</ele>
        <time>2014-07-14T07:37:06Z</time>
      </trkpt>
      <trkpt lat="50.24815" lon="1.59866">
        <ele>8.789</ele>
        <time>2014-07-14T07:37:14Z</time>
      </trkpt>
      <trkpt lat="50.24829" lon="1.59806">
        <ele>9.751</ele>
        <time>2014-07-14T07:37:22Z</time>
      </trkpt>
      <trkpt lat="50.2484" lon="1.59757">
        <ele>9.751</ele>
        <time>2014-07-14T07:37:27Z</time>
      </trkpt>
      <trkpt lat="50.24849" lon="1.59713">
        <ele>8.309</ele>
        <time>2014-07-14T07:37:33Z</time>
      </trkpt>
      <trkpt lat="50.24859" lon="1.59667">
        <ele>7.828</ele>
        <time>2014-07-14T07:37:39Z</time>
      </trkpt>
      <trkpt lat="50.24869" lon="1.59622">
        <ele>6.386</ele>
        <time>2014-07-14T07:37:46Z</time>
      </trkpt>
      <trkpt lat="50.24874" lon="1.59601">
        <ele>5.905</ele>
        <time>2014-07-14T07:37:50Z</time>
      </trkpt>
      <trkpt lat="50.24886" lon="1.5955">
        <ele>5.425</ele>
        <time>2014-07-14T07:37:58Z</time>
      </trkpt>
      <trkpt lat="50.24899" lon="1.59492">
        <ele>5.425</ele>
        <time>2014-07-14T07:38:06Z</time>
      </trkpt>
      <trkpt lat="50.2491" lon="1.59442">
        <ele>6.386</ele>
        <time>2014-07-14T07:38:13Z</time>
      </trkpt>
      <trkpt lat="50.24918" lon="1.59407">
        <ele>7.828</ele>
        <time>2014-07-14T07:38:18Z</time>
      </trkpt>
      <trkpt lat="50.24922" lon="1.59376">
        <ele>8.789</ele>
        <time>2014-07-14T07:38:25Z</time>
      </trkpt>
      <trkpt lat="50.24923" lon="1.5934">
        <ele>8.789</ele>
        <time>2014-07-14T07:38:31Z</time>
      </trkpt>
      <trkpt lat="50.24923" lon="1.5934">
        <ele>9.751</ele>
        <time>2014-07-14T07:46:52Z</time>
      </trkpt>
      <trkpt lat="50.24922" lon="1.5936">
        <ele>9.751</ele>
        <time>2014-07-14T07:47:03Z</time>
      </trkpt>
      <trkpt lat="50.2492" lon="1.59395">
        <ele>9.27</ele>
        <time>2014-07-14T07:47:11Z</time>
      </trkpt>
      <trkpt lat="50.24914" lon="1.59426">
        <ele>7.347</ele>
        <time>2014-07-14T07:47:17Z</time>
      </trkpt>
      <trkpt lat="50.24903" lon="1.59474">
        <ele>8.309</ele>
        <time>2014-07-14T07:47:24Z</time>
      </trkpt>
      <trkpt lat="50.24889" lon="1.59536">
        <ele>6.866</ele>
        <time>2014-07-14T07:47:33Z</time>
      </trkpt>
      <trkpt lat="50.2487" lon="1.59619">
        <ele>7.828</ele>
        <time>2014-07-14T07:47:45Z</time>
      </trkpt>
      <trkpt lat="50.24865" lon="1.5964">
        <ele>8.309</ele>
        <time>2014-07-14T07:47:48Z</time>
      </trkpt>
      <trkpt lat="50.24849" lon="1.59711">
        <ele>9.751</ele>
        <time>2014-07-14T07:47:58Z</time>
      </trkpt>
      <trkpt lat="50.24836" lon="1.59772">
        <ele>9.751</ele>
        <time>2014-07-14T07:48:06Z</time>
      </trkpt>
      <trkpt lat="50.24833" lon="1.59789">
        <ele>9.751</ele>
        <time>2014-07-14T07:48:08Z</time>
      </trkpt>
      <trkpt lat="50.24809" lon="1.59887">
        <ele>7.828</ele>
        <time>2014-07-14T07:48:20Z</time>
      </trkpt>
      <trkpt lat="50.24791" lon="1.59963">
        <ele>7.828</ele>
        <time>2014-07-14T07:48:29Z</time>
      </trkpt>
      <trkpt lat="50.24774" lon="1.60038">
        <ele>8.309</ele>
        <time>2014-07-14T07:48:37Z</time>
      </trkpt>
      <trkpt lat="50.24753" lon="1.60126">
        <ele>8.789</ele>
        <time>2014-07-14T07:48:46Z</time>
      </trkpt>
      <trkpt lat="50.24735" lon="1.60203">
        <ele>8.789</ele>
        <time>2014-07-14T07:48:54Z</time>
      </trkpt>
      <trkpt lat="50.24716" lon="1.60285">
        <ele>8.309</ele>
        <time>2014-07-14T07:49:03Z</time>
      </trkpt>
      <trkpt lat="50.24714" lon="1.60297">
        <ele>8.309</ele>
        <time>2014-07-14T07:49:05Z</time>
      </trkpt>
      <trkpt lat="50.24701" lon="1.60349">
        <ele>7.347</ele>
        <time>2014-07-14T07:49:12Z</time>
      </trkpt>
      <trkpt lat="50.24697" lon="1.60367">
        <ele>6.866</ele>
        <time>2014-07-14T07:49:14Z</time>
      </trkpt>
      <trkpt lat="50.24696" lon="1.60408">
        <ele>6.386</ele>
        <time>2014-07-14T07:49:19Z</time>
      </trkpt>
      <trkpt lat="50.24704" lon="1.60428">
        <ele>5.905</ele>
        <time>2014-07-14T07:49:22Z</time>
      </trkpt>
      <trkpt lat="50.24746" lon="1.60497">
        <ele>5.905</ele>
        <time>2014-07-14T07:49:32Z</time>
      </trkpt>
      <trkpt lat="50.2479" lon="1.60568">
        <ele>5.425</ele>
        <time>2014-07-14T07:49:42Z</time>
      </trkpt>
      <trkpt lat="50.24826" lon="1.60622">
        <ele>6.386</ele>
        <time>2014-07-14T07:49:50Z</time>
      </trkpt>
      <trkpt lat="50.2487" lon="1.60693">
        <ele>7.347</ele>
        <time>2014-07-14T07:50:00Z</time>
      </trkpt>
      <trkpt lat="50.2491" lon="1.60759">
        <ele>7.347</ele>
        <time>2014-07-14T07:50:09Z</time>
      </trkpt>
      <trkpt lat="50.24921" lon="1.60804">
        <ele>7.828</ele>
        <time>2014-07-14T07:50:14Z</time>
      </trkpt>
      <trkpt lat="50.24928" lon="1.60894">
        <ele>6.866</ele>
        <time>2014-07-14T07:50:23Z</time>
      </trkpt>
      <trkpt lat="50.24934" lon="1.60992">
        <ele>5.905</ele>
        <time>2014-07-14T07:50:33Z</time>
      </trkpt>
      <trkpt lat="50.24943" lon="1.61079">
        <ele>4.944</ele>
        <time>2014-07-14T07:50:42Z</time>
      </trkpt>
      <trkpt lat="50.24945" lon="1.61118">
        <ele>4.944</ele>
        <time>2014-07-14T07:50:46Z</time>
      </trkpt>
      <trkpt lat="50.2494" lon="1.61157">
        <ele>4.944</ele>
        <time>2014-07-14T07:50:50Z</time>
      </trkpt>
      <trkpt lat="50.24913" lon="1.61234">
        <ele>6.386</ele>
        <time>2014-07-14T07:50:59Z</time>
      </trkpt>
      <trkpt lat="50.2487" lon="1.61345">
        <ele>7.347</ele>
        <time>2014-07-14T07:51:12Z</time>
      </trkpt>
      <trkpt lat="50.24835" lon="1.61438">
        <ele>7.347</ele>
        <time>2014-07-14T07:51:23Z</time>
      </trkpt>
      <trkpt lat="50.24799" lon="1.61533">
        <ele>6.386</ele>
        <time>2014-07-14T07:51:34Z</time>
      </trkpt>
      <trkpt lat="50.24795" lon="1.61541">
        <ele>6.386</ele>
        <time>2014-07-14T07:51:35Z</time>
      </trkpt>
      <trkpt lat="50.24776" lon="1.61564">
        <ele>6.866</ele>
        <time>2014-07-14T07:51:39Z</time>
      </trkpt>
      <trkpt lat="50.24752" lon="1.61577">
        <ele>6.866</ele>
        <time>2014-07-14T07:51:43Z</time>
      </trkpt>
      <trkpt lat="50.24733" lon="1.61599">
        <ele>7.347</ele>
        <time>2014-07-14T07:51:47Z</time>
      </trkpt>
      <trkpt lat="50.24738" lon="1.61613">
        <ele>7.347</ele>
        <time>2014-07-14T07:51:49Z</time>
      </trkpt>
      <trkpt lat="50.24773" lon="1.6167">
        <ele>5.905</ele>
        <time>2014-07-14T07:51:57Z</time>
      </trkpt>
      <trkpt lat="50.24816" lon="1.61737">
        <ele>5.905</ele>
        <time>2014-07-14T07:52:06Z</time>
      </trkpt>
      <trkpt lat="50.24858" lon="1.61803">
        <ele>5.425</ele>
        <time>2014-07-14T07:52:15Z</time>
      </trkpt>
      <trkpt lat="50.249" lon="1.61865">
        <ele>4.944</ele>
        <time>2014-07-14T07:52:24Z</time>
      </trkpt>
      <trkpt lat="50.24936" lon="1.61905">
        <ele>4.944</ele>
        <time>2014-07-14T07:52:31Z</time>
      </trkpt>
      <trkpt lat="50.24967" lon="1.61931">
        <ele>3.983</ele>
        <time>2014-07-14T07:52:37Z</time>
      </trkpt>
      <trkpt lat="50.2501" lon="1.6195">
        <ele>3.021</ele>
        <time>2014-07-14T07:52:44Z</time>
      </trkpt>
      <trkpt lat="50.25066" lon="1.61976">
        <ele>3.021</ele>
        <time>2014-07-14T07:52:53Z</time>
      </trkpt>
      <trkpt lat="50.25105" lon="1.61994">
        <ele>3.021</ele>
        <time>2014-07-14T07:53:00Z</time>
      </trkpt>
      <trkpt lat="50.25133" lon="1.62007">
        <ele>2.541</ele>
        <time>2014-07-14T07:53:05Z</time>
      </trkpt>
      <trkpt lat="50.25179" lon="1.62031">
        <ele>2.541</ele>
        <time>2014-07-14T07:53:13Z</time>
      </trkpt>
      <trkpt lat="50.25219" lon="1.62055">
        <ele>1.579</ele>
        <time>2014-07-14T07:53:20Z</time>
      </trkpt>
      <trkpt lat="50.2527" lon="1.62088">
        <ele>2.06</ele>
        <time>2014-07-14T07:53:29Z</time>
      </trkpt>
      <trkpt lat="50.25315" lon="1.62115">
        <ele>2.06</ele>
        <time>2014-07-14T07:53:37Z</time>
      </trkpt>
      <trkpt lat="50.25353" lon="1.62142">
        <ele>1.579</ele>
        <time>2014-07-14T07:53:44Z</time>
      </trkpt>
      <trkpt lat="50.25391" lon="1.62171">
        <ele>1.579</ele>
        <time>2014-07-14T07:53:51Z</time>
      </trkpt>
      <trkpt lat="50.25417" lon="1.6219">
        <ele>3.021</ele>
        <time>2014-07-14T07:53:55Z</time>
      </trkpt>
      <trkpt lat="50.25438" lon="1.62187">
        <ele>3.502</ele>
        <time>2014-07-14T07:53:59Z</time>
      </trkpt>
      <trkpt lat="50.25498" lon="1.62192">
        <ele>4.463</ele>
        <time>2014-07-14T07:54:09Z</time>
      </trkpt>
      <trkpt lat="50.25545" lon="1.62196">
        <ele>4.944</ele>
        <time>2014-07-14T07:54:17Z</time>
      </trkpt>
      <trkpt lat="50.25594" lon="1.62202">
        <ele>4.944</ele>
        <time>2014-07-14T07:54:25Z</time>
      </trkpt>
      <trkpt lat="50.2565" lon="1.62207">
        <ele>5.905</ele>
        <time>2014-07-14T07:54:34Z</time>
      </trkpt>
      <trkpt lat="50.25716" lon="1.62211">
        <ele>5.425</ele>
        <time>2014-07-14T07:54:45Z</time>
      </trkpt>
      <trkpt lat="50.25777" lon="1.62212">
        <ele>6.386</ele>
        <time>2014-07-14T07:54:55Z</time>
      </trkpt>
      <trkpt lat="50.25819" lon="1.6221">
        <ele>6.386</ele>
        <time>2014-07-14T07:55:02Z</time>
      </trkpt>
      <trkpt lat="50.25861" lon="1.62205">
        <ele>7.347</ele>
        <time>2014-07-14T07:55:09Z</time>
      </trkpt>
      <trkpt lat="50.25903" lon="1.62199">
        <ele>7.347</ele>
        <time>2014-07-14T07:55:16Z</time>
      </trkpt>
      <trkpt lat="50.25962" lon="1.62184">
        <ele>7.347</ele>
        <time>2014-07-14T07:55:26Z</time>
      </trkpt>
      <trkpt lat="50.26003" lon="1.62173">
        <ele>7.347</ele>
        <time>2014-07-14T07:55:33Z</time>
      </trkpt>
      <trkpt lat="50.26042" lon="1.62171">
        <ele>6.386</ele>
        <time>2014-07-14T07:55:40Z</time>
      </trkpt>
      <trkpt lat="50.26064" lon="1.62178">
        <ele>5.905</ele>
        <time>2014-07-14T07:55:44Z</time>
      </trkpt>
      <trkpt lat="50.26063" lon="1.62191">
        <ele>5.905</ele>
        <time>2014-07-14T07:55:46Z</time>
      </trkpt>
      <trkpt lat="50.26061" lon="1.62215">
        <ele>5.905</ele>
        <time>2014-07-14T07:55:49Z</time>
      </trkpt>
      <trkpt lat="50.26061" lon="1.62243">
        <ele>4.944</ele>
        <time>2014-07-14T07:55:52Z</time>
      </trkpt>
      <trkpt lat="50.26074" lon="1.62315">
        <ele>4.463</ele>
        <time>2014-07-14T07:56:00Z</time>
      </trkpt>
      <trkpt lat="50.26087" lon="1.6238">
        <ele>4.463</ele>
        <time>2014-07-14T07:56:07Z</time>
      </trkpt>
      <trkpt lat="50.26091" lon="1.62398">
        <ele>5.425</ele>
        <time>2014-07-14T07:56:09Z</time>
      </trkpt>
      <trkpt lat="50.261" lon="1.62443">
        <ele>7.347</ele>
        <time>2014-07-14T07:56:14Z</time>
      </trkpt>
      <trkpt lat="50.26096" lon="1.62511">
        <ele>9.27</ele>
        <time>2014-07-14T07:56:22Z</time>
      </trkpt>
      <trkpt lat="50.26095" lon="1.62534">
        <ele>10.231</ele>
        <time>2014-07-14T07:56:25Z</time>
      </trkpt>
      <trkpt lat="50.26095" lon="1.6256">
        <ele>11.673</ele>
        <time>2014-07-14T07:56:29Z</time>
      </trkpt>
      <trkpt lat="50.261" lon="1.62562">
        <ele>12.154</ele>
        <time>2014-07-14T07:56:32Z</time>
      </trkpt>
      <trkpt lat="50.26111" lon="1.62567">
        <ele>10.712</ele>
        <time>2014-07-14T07:56:38Z</time>
      </trkpt>
      <trkpt lat="50.26114" lon="1.62568">
        <ele>10.231</ele>
        <time>2014-07-14T07:56:39Z</time>
      </trkpt>
      <trkpt lat="50.26149" lon="1.62584">
        <ele>7.828</ele>
        <time>2014-07-14T07:56:47Z</time>
      </trkpt>
      <trkpt lat="50.2619" lon="1.62605">
        <ele>7.347</ele>
        <time>2014-07-14T07:56:55Z</time>
      </trkpt>
      <trkpt lat="50.26229" lon="1.62627">
        <ele>6.866</ele>
        <time>2014-07-14T07:57:02Z</time>
      </trkpt>
      <trkpt lat="50.26285" lon="1.62661">
        <ele>5.425</ele>
        <time>2014-07-14T07:57:12Z</time>
      </trkpt>
      <trkpt lat="50.26332" lon="1.6269">
        <ele>4.944</ele>
        <time>2014-07-14T07:57:20Z</time>
      </trkpt>
      <trkpt lat="50.26383" lon="1.62721">
        <ele>4.944</ele>
        <time>2014-07-14T07:57:29Z</time>
      </trkpt>
      <trkpt lat="50.26435" lon="1.62753">
        <ele>5.905</ele>
        <time>2014-07-14T07:57:38Z</time>
      </trkpt>
      <trkpt lat="50.26493" lon="1.62787">
        <ele>5.905</ele>
        <time>2014-07-14T07:57:48Z</time>
      </trkpt>
      <trkpt lat="50.2655" lon="1.62822">
        <ele>5.905</ele>
        <time>2014-07-14T07:57:58Z</time>
      </trkpt>
      <trkpt lat="50.26596" lon="1.6285">
        <ele>4.944</ele>
        <time>2014-07-14T07:58:06Z</time>
      </trkpt>
      <trkpt lat="50.26618" lon="1.62873">
        <ele>4.463</ele>
        <time>2014-07-14T07:58:10Z</time>
      </trkpt>
      <trkpt lat="50.26616" lon="1.62895">
        <ele>3.983</ele>
        <time>2014-07-14T07:58:12Z</time>
      </trkpt>
      <trkpt lat="50.26593" lon="1.63028">
        <ele>4.463</ele>
        <time>2014-07-14T07:58:25Z</time>
      </trkpt>
      <trkpt lat="50.26584" lon="1.63112">
        <ele>5.425</ele>
        <time>2014-07-14T07:58:33Z</time>
      </trkpt>
      <trkpt lat="50.26583" lon="1.63143">
        <ele>5.425</ele>
        <time>2014-07-14T07:58:36Z</time>
      </trkpt>
      <trkpt lat="50.26584" lon="1.63185">
        <ele>5.905</ele>
        <time>2014-07-14T07:58:40Z</time>
      </trkpt>
      <trkpt lat="50.26594" lon="1.63289">
        <ele>5.905</ele>
        <time>2014-07-14T07:58:50Z</time>
      </trkpt>
      <trkpt lat="50.2661" lon="1.63368">
        <ele>6.386</ele>
        <time>2014-07-14T07:58:58Z</time>
      </trkpt>
      <trkpt lat="50.26632" lon="1.63444">
        <ele>6.386</ele>
        <time>2014-07-14T07:59:06Z</time>
      </trkpt>
      <trkpt lat="50.26663" lon="1.6353">
        <ele>5.905</ele>
        <time>2014-07-14T07:59:15Z</time>
      </trkpt>
      <trkpt lat="50.26691" lon="1.63611">
        <ele>5.425</ele>
        <time>2014-07-14T07:59:23Z</time>
      </trkpt>
      <trkpt lat="50.26703" lon="1.63691">
        <ele>4.944</ele>
        <time>2014-07-14T07:59:30Z</time>
      </trkpt>
      <trkpt lat="50.26711" lon="1.63777">
        <ele>4.463</ele>
        <time>2014-07-14T07:59:38Z</time>
      </trkpt>
      <trkpt lat="50.26725" lon="1.63858">
        <ele>4.463</ele>
        <time>2014-07-14T07:59:46Z</time>
      </trkpt>
      <trkpt lat="50.2674" lon="1.63927">
        <ele>4.463</ele>
        <time>2014-07-14T07:59:53Z</time>
      </trkpt>
      <trkpt lat="50.26756" lon="1.64019">
        <ele>6.866</ele>
        <time>2014-07-14T08:00:02Z</time>
      </trkpt>
      <trkpt lat="50.26765" lon="1.64113">
        <ele>9.27</ele>
        <time>2014-07-14T08:00:11Z</time>
      </trkpt>
      <trkpt lat="50.26771" lon="1.64198">
        <ele>8.309</ele>
        <time>2014-07-14T08:00:19Z</time>
      </trkpt>
      <trkpt lat="50.26778" lon="1.64285">
        <ele>8.789</ele>
        <time>2014-07-14T08:00:27Z</time>
      </trkpt>
      <trkpt lat="50.26795" lon="1.64366">
        <ele>10.231</ele>
        <time>2014-07-14T08:00:35Z</time>
      </trkpt>
      <trkpt lat="50.26801" lon="1.64441">
        <ele>10.231</ele>
        <time>2014-07-14T08:00:42Z</time>
      </trkpt>
      <trkpt lat="50.26802" lon="1.64528">
        <ele>9.751</ele>
        <time>2014-07-14T08:00:50Z</time>
      </trkpt>
      <trkpt lat="50.2681" lon="1.64594">
        <ele>9.751</ele>
        <time>2014-07-14T08:00:56Z</time>
      </trkpt>
      <trkpt lat="50.26827" lon="1.64655">
        <ele>9.751</ele>
        <time>2014-07-14T08:01:02Z</time>
      </trkpt>
      <trkpt lat="50.26843" lon="1.64728">
        <ele>9.27</ele>
        <time>2014-07-14T08:01:09Z</time>
      </trkpt>
      <trkpt lat="50.26844" lon="1.64781">
        <ele>8.309</ele>
        <time>2014-07-14T08:01:14Z</time>
      </trkpt>
      <trkpt lat="50.26843" lon="1.64802">
        <ele>8.309</ele>
        <time>2014-07-14T08:01:16Z</time>
      </trkpt>
      <trkpt lat="50.26848" lon="1.64844">
        <ele>8.309</ele>
        <time>2014-07-14T08:01:20Z</time>
      </trkpt>
      <trkpt lat="50.26872" lon="1.64931">
        <ele>9.751</ele>
        <time>2014-07-14T08:01:29Z</time>
      </trkpt>
      <trkpt lat="50.26892" lon="1.65021">
        <ele>11.673</ele>
        <time>2014-07-14T08:01:38Z</time>
      </trkpt>
      <trkpt lat="50.26907" lon="1.65104">
        <ele>11.673</ele>
        <time>2014-07-14T08:01:46Z</time>
      </trkpt>
      <trkpt lat="50.26914" lon="1.652">
        <ele>10.712</ele>
        <time>2014-07-14T08:01:55Z</time>
      </trkpt>
      <trkpt lat="50.26928" lon="1.65285">
        <ele>10.231</ele>
        <time>2014-07-14T08:02:03Z</time>
      </trkpt>
      <trkpt lat="50.26929" lon="1.65348">
        <ele>9.27</ele>
        <time>2014-07-14T08:02:09Z</time>
      </trkpt>
      <trkpt lat="50.26927" lon="1.65408">
        <ele>9.27</ele>
        <time>2014-07-14T08:02:15Z</time>
      </trkpt>
      <trkpt lat="50.26923" lon="1.65458">
        <ele>11.193</ele>
        <time>2014-07-14T08:02:21Z</time>
      </trkpt>
      <trkpt lat="50.26924" lon="1.65464">
        <ele>11.193</ele>
        <time>2014-07-14T08:02:22Z</time>
      </trkpt>
      <trkpt lat="50.26924" lon="1.65503">
        <ele>10.712</ele>
        <time>2014-07-14T08:02:27Z</time>
      </trkpt>
      <trkpt lat="50.26934" lon="1.65537">
        <ele>9.751</ele>
        <time>2014-07-14T08:02:31Z</time>
      </trkpt>
      <trkpt lat="50.2695" lon="1.65546">
        <ele>9.751</ele>
        <time>2014-07-14T08:02:34Z</time>
      </trkpt>
      <trkpt lat="50.26961" lon="1.65549">
        <ele>9.27</ele>
        <time>2014-07-14T08:02:36Z</time>
      </trkpt>
      <trkpt lat="50.26981" lon="1.6555">
        <ele>8.309</ele>
        <time>2014-07-14T08:02:39Z</time>
      </trkpt>
      <trkpt lat="50.27015" lon="1.65566">
        <ele>6.866</ele>
        <time>2014-07-14T08:02:44Z</time>
      </trkpt>
      <trkpt lat="50.2703" lon="1.65592">
        <ele>6.386</ele>
        <time>2014-07-14T08:02:47Z</time>
      </trkpt>
      <trkpt lat="50.27061" lon="1.65703">
        <ele>6.866</ele>
        <time>2014-07-14T08:02:58Z</time>
      </trkpt>
      <trkpt lat="50.27062" lon="1.65758">
        <ele>6.866</ele>
        <time>2014-07-14T08:03:03Z</time>
      </trkpt>
      <trkpt lat="50.27051" lon="1.65814">
        <ele>7.828</ele>
        <time>2014-07-14T08:03:08Z</time>
      </trkpt>
      <trkpt lat="50.27029" lon="1.65888">
        <ele>7.828</ele>
        <time>2014-07-14T08:03:15Z</time>
      </trkpt>
      <trkpt lat="50.27" lon="1.65956">
        <ele>7.828</ele>
        <time>2014-07-14T08:03:22Z</time>
      </trkpt>
      <trkpt lat="50.26994" lon="1.66011">
        <ele>8.309</ele>
        <time>2014-07-14T08:03:27Z</time>
      </trkpt>
      <trkpt lat="50.26999" lon="1.66102">
        <ele>7.828</ele>
        <time>2014-07-14T08:03:35Z</time>
      </trkpt>
      <trkpt lat="50.26993" lon="1.66204">
        <ele>7.828</ele>
        <time>2014-07-14T08:03:44Z</time>
      </trkpt>
      <trkpt lat="50.2699" lon="1.66226">
        <ele>8.309</ele>
        <time>2014-07-14T08:03:46Z</time>
      </trkpt>
      <trkpt lat="50.26974" lon="1.663">
        <ele>8.789</ele>
        <time>2014-07-14T08:03:53Z</time>
      </trkpt>
      <trkpt lat="50.26973" lon="1.66352">
        <ele>10.231</ele>
        <time>2014-07-14T08:03:58Z</time>
      </trkpt>
      <trkpt lat="50.26978" lon="1.66371">
        <ele>10.712</ele>
        <time>2014-07-14T08:04:00Z</time>
      </trkpt>
      <trkpt lat="50.27006" lon="1.66455">
        <ele>13.115</ele>
        <time>2014-07-14T08:04:08Z</time>
      </trkpt>
      <trkpt lat="50.27022" lon="1.66523">
        <ele>13.115</ele>
        <time>2014-07-14T08:04:15Z</time>
      </trkpt>
      <trkpt lat="50.27024" lon="1.66532">
        <ele>12.634</ele>
        <time>2014-07-14T08:04:16Z</time>
      </trkpt>
      <trkpt lat="50.27056" lon="1.66611">
        <ele>10.712</ele>
        <time>2014-07-14T08:04:26Z</time>
      </trkpt>
      <trkpt lat="50.27069" lon="1.66637">
        <ele>11.193</ele>
        <time>2014-07-14T08:04:31Z</time>
      </trkpt>
      <trkpt lat="50.27083" lon="1.66642">
        <ele>11.193</ele>
        <time>2014-07-14T08:04:34Z</time>
      </trkpt>
      <trkpt lat="50.27121" lon="1.66653">
        <ele>10.712</ele>
        <time>2014-07-14T08:04:41Z</time>
      </trkpt>
      <trkpt lat="50.27148" lon="1.66662">
        <ele>12.634</ele>
        <time>2014-07-14T08:04:46Z</time>
      </trkpt>
      <trkpt lat="50.27168" lon="1.66672">
        <ele>12.154</ele>
        <time>2014-07-14T08:04:50Z</time>
      </trkpt>
      <trkpt lat="50.27167" lon="1.66697">
        <ele>11.193</ele>
        <time>2014-07-14T08:04:53Z</time>
      </trkpt>
      <trkpt lat="50.27165" lon="1.66704">
        <ele>10.712</ele>
        <time>2014-07-14T08:04:54Z</time>
      </trkpt>
      <trkpt lat="50.27144" lon="1.6676">
        <ele>9.27</ele>
        <time>2014-07-14T08:05:01Z</time>
      </trkpt>
      <trkpt lat="50.27126" lon="1.66823">
        <ele>10.231</ele>
        <time>2014-07-14T08:05:08Z</time>
      </trkpt>
      <trkpt lat="50.2711" lon="1.66908">
        <ele>11.673</ele>
        <time>2014-07-14T08:05:17Z</time>
      </trkpt>
      <trkpt lat="50.27106" lon="1.66937">
        <ele>11.193</ele>
        <time>2014-07-14T08:05:20Z</time>
      </trkpt>
      <trkpt lat="50.27107" lon="1.67008">
        <ele>11.673</ele>
        <time>2014-07-14T08:05:27Z</time>
      </trkpt>
      <trkpt lat="50.27111" lon="1.67103">
        <ele>11.673</ele>
        <time>2014-07-14T08:05:37Z</time>
      </trkpt>
      <trkpt lat="50.27117" lon="1.6716">
        <ele>10.712</ele>
        <time>2014-07-14T08:05:43Z</time>
      </trkpt>
      <trkpt lat="50.27121" lon="1.67217">
        <ele>9.27</ele>
        <time>2014-07-14T08:05:49Z</time>
      </trkpt>
      <trkpt lat="50.27135" lon="1.67308">
        <ele>8.789</ele>
        <time>2014-07-14T08:05:58Z</time>
      </trkpt>
      <trkpt lat="50.27144" lon="1.67369">
        <ele>9.751</ele>
        <time>2014-07-14T08:06:04Z</time>
      </trkpt>
      <trkpt lat="50.27158" lon="1.67465">
        <ele>8.309</ele>
        <time>2014-07-14T08:06:14Z</time>
      </trkpt>
      <trkpt lat="50.27168" lon="1.67524">
        <ele>6.866</ele>
        <time>2014-07-14T08:06:20Z</time>
      </trkpt>
      <trkpt lat="50.27184" lon="1.67603">
        <ele>7.828</ele>
        <time>2014-07-14T08:06:28Z</time>
      </trkpt>
      <trkpt lat="50.27196" lon="1.6767">
        <ele>5.425</ele>
        <time>2014-07-14T08:06:35Z</time>
      </trkpt>
      <trkpt lat="50.27206" lon="1.67729">
        <ele>6.386</ele>
        <time>2014-07-14T08:06:41Z</time>
      </trkpt>
      <trkpt lat="50.27214" lon="1.67775">
        <ele>7.828</ele>
        <time>2014-07-14T08:06:46Z</time>
      </trkpt>
      <trkpt lat="50.27219" lon="1.67808">
        <ele>8.309</ele>
        <time>2014-07-14T08:06:50Z</time>
      </trkpt>
      <trkpt lat="50.27226" lon="1.67874">
        <ele>11.193</ele>
        <time>2014-07-14T08:07:00Z</time>
      </trkpt>
      <trkpt lat="50.2723" lon="1.67913">
        <ele>12.634</ele>
        <time>2014-07-14T08:07:06Z</time>
      </trkpt>
      <trkpt lat="50.27321" lon="1.67922">
        <ele>13.596</ele>
        <time>2014-07-14T08:07:11Z</time>
      </trkpt>
      <trkpt lat="50.27353" lon="1.67973">
        <ele>14.076</ele>
        <time>2014-07-14T08:07:19Z</time>
      </trkpt>
      <trkpt lat="50.27396" lon="1.68051">
        <ele>14.076</ele>
        <time>2014-07-14T08:07:30Z</time>
      </trkpt>
      <trkpt lat="50.27433" lon="1.68114">
        <ele>13.596</ele>
        <time>2014-07-14T08:07:39Z</time>
      </trkpt>
      <trkpt lat="50.27479" lon="1.68194">
        <ele>12.634</ele>
        <time>2014-07-14T08:07:50Z</time>
      </trkpt>
      <trkpt lat="50.27524" lon="1.6827">
        <ele>11.193</ele>
        <time>2014-07-14T08:08:00Z</time>
      </trkpt>
      <trkpt lat="50.27569" lon="1.6835">
        <ele>10.231</ele>
        <time>2014-07-14T08:08:10Z</time>
      </trkpt>
      <trkpt lat="50.27602" lon="1.68418">
        <ele>9.751</ele>
        <time>2014-07-14T08:08:18Z</time>
      </trkpt>
      <trkpt lat="50.27642" lon="1.68505">
        <ele>11.193</ele>
        <time>2014-07-14T08:08:28Z</time>
      </trkpt>
      <trkpt lat="50.27677" lon="1.68577">
        <ele>13.115</ele>
        <time>2014-07-14T08:08:36Z</time>
      </trkpt>
      <trkpt lat="50.27714" lon="1.68655">
        <ele>12.634</ele>
        <time>2014-07-14T08:08:45Z</time>
      </trkpt>
      <trkpt lat="50.27742" lon="1.68715">
        <ele>11.673</ele>
        <time>2014-07-14T08:08:52Z</time>
      </trkpt>
      <trkpt lat="50.2777" lon="1.68778">
        <ele>11.193</ele>
        <time>2014-07-14T08:08:59Z</time>
      </trkpt>
      <trkpt lat="50.27787" lon="1.68851">
        <ele>11.193</ele>
        <time>2014-07-14T08:09:06Z</time>
      </trkpt>
      <trkpt lat="50.27812" lon="1.68928">
        <ele>11.673</ele>
        <time>2014-07-14T08:09:13Z</time>
      </trkpt>
      <trkpt lat="50.27854" lon="1.68977">
        <ele>11.193</ele>
        <time>2014-07-14T08:09:20Z</time>
      </trkpt>
      <trkpt lat="50.27887" lon="1.69036">
        <ele>10.231</ele>
        <time>2014-07-14T08:09:27Z</time>
      </trkpt>
      <trkpt lat="50.27912" lon="1.69101">
        <ele>11.193</ele>
        <time>2014-07-14T08:09:34Z</time>
      </trkpt>
      <trkpt lat="50.27936" lon="1.69165">
        <ele>10.231</ele>
        <time>2014-07-14T08:09:41Z</time>
      </trkpt>
      <trkpt lat="50.27959" lon="1.69225">
        <ele>7.828</ele>
        <time>2014-07-14T08:09:48Z</time>
      </trkpt>
      <trkpt lat="50.2798" lon="1.69289">
        <ele>7.347</ele>
        <time>2014-07-14T08:09:55Z</time>
      </trkpt>
      <trkpt lat="50.27993" lon="1.69367">
        <ele>4.944</ele>
        <time>2014-07-14T08:10:03Z</time>
      </trkpt>
      <trkpt lat="50.28008" lon="1.69463">
        <ele>3.983</ele>
        <time>2014-07-14T08:10:13Z</time>
      </trkpt>
      <trkpt lat="50.28008" lon="1.69481">
        <ele>3.502</ele>
        <time>2014-07-14T08:10:15Z</time>
      </trkpt>
      <trkpt lat="50.28008" lon="1.69516">
        <ele>4.463</ele>
        <time>2014-07-14T08:10:20Z</time>
      </trkpt>
      <trkpt lat="50.28007" lon="1.69527">
        <ele>4.463</ele>
        <time>2014-07-14T08:10:23Z</time>
      </trkpt>
      <trkpt lat="50.28003" lon="1.69536">
        <ele>4.463</ele>
        <time>2014-07-14T08:10:26Z</time>
      </trkpt>
      <trkpt lat="50.28002" lon="1.69566">
        <ele>4.944</ele>
        <time>2014-07-14T08:10:29Z</time>
      </trkpt>
      <trkpt lat="50.28004" lon="1.69649">
        <ele>4.463</ele>
        <time>2014-07-14T08:10:38Z</time>
      </trkpt>
      <trkpt lat="50.28012" lon="1.69727">
        <ele>3.983</ele>
        <time>2014-07-14T08:10:46Z</time>
      </trkpt>
      <trkpt lat="50.28024" lon="1.69795">
        <ele>4.463</ele>
        <time>2014-07-14T08:10:53Z</time>
      </trkpt>
      <trkpt lat="50.28043" lon="1.6988">
        <ele>5.425</ele>
        <time>2014-07-14T08:11:02Z</time>
      </trkpt>
      <trkpt lat="50.28059" lon="1.69936">
        <ele>5.905</ele>
        <time>2014-07-14T08:11:08Z</time>
      </trkpt>
      <trkpt lat="50.28081" lon="1.69998">
        <ele>6.866</ele>
        <time>2014-07-14T08:11:15Z</time>
      </trkpt>
      <trkpt lat="50.28122" lon="1.70088">
        <ele>7.828</ele>
        <time>2014-07-14T08:11:26Z</time>
      </trkpt>
      <trkpt lat="50.28166" lon="1.70178">
        <ele>8.309</ele>
        <time>2014-07-14T08:11:37Z</time>
      </trkpt>
      <trkpt lat="50.2819" lon="1.70238">
        <ele>8.309</ele>
        <time>2014-07-14T08:11:44Z</time>
      </trkpt>
      <trkpt lat="50.28213" lon="1.70308">
        <ele>9.751</ele>
        <time>2014-07-14T08:11:52Z</time>
      </trkpt>
      <trkpt lat="50.28227" lon="1.70384">
        <ele>10.231</ele>
        <time>2014-07-14T08:12:00Z</time>
      </trkpt>
      <trkpt lat="50.28239" lon="1.70492">
        <ele>9.751</ele>
        <time>2014-07-14T08:12:11Z</time>
      </trkpt>
      <trkpt lat="50.28254" lon="1.70611">
        <ele>10.231</ele>
        <time>2014-07-14T08:12:23Z</time>
      </trkpt>
      <trkpt lat="50.28266" lon="1.7073">
        <ele>11.193</ele>
        <time>2014-07-14T08:12:35Z</time>
      </trkpt>
      <trkpt lat="50.28279" lon="1.70829">
        <ele>12.154</ele>
        <time>2014-07-14T08:12:45Z</time>
      </trkpt>
      <trkpt lat="50.28295" lon="1.70917">
        <ele>13.115</ele>
        <time>2014-07-14T08:12:54Z</time>
      </trkpt>
      <trkpt lat="50.2831" lon="1.71005">
        <ele>14.076</ele>
        <time>2014-07-14T08:13:03Z</time>
      </trkpt>
      <trkpt lat="50.2833" lon="1.71115">
        <ele>15.518</ele>
        <time>2014-07-14T08:13:14Z</time>
      </trkpt>
      <trkpt lat="50.28348" lon="1.71211">
        <ele>16.48</ele>
        <time>2014-07-14T08:13:24Z</time>
      </trkpt>
      <trkpt lat="50.28363" lon="1.71298">
        <ele>17.441</ele>
        <time>2014-07-14T08:13:33Z</time>
      </trkpt>
      <trkpt lat="50.2838" lon="1.7136">
        <ele>18.883</ele>
        <time>2014-07-14T08:13:40Z</time>
      </trkpt>
      <trkpt lat="50.28405" lon="1.71446">
        <ele>18.402</ele>
        <time>2014-07-14T08:13:50Z</time>
      </trkpt>
      <trkpt lat="50.28433" lon="1.71536">
        <ele>20.325</ele>
        <time>2014-07-14T08:14:00Z</time>
      </trkpt>
      <trkpt lat="50.28456" lon="1.71608">
        <ele>21.286</ele>
        <time>2014-07-14T08:14:08Z</time>
      </trkpt>
      <trkpt lat="50.28485" lon="1.71699">
        <ele>22.728</ele>
        <time>2014-07-14T08:14:18Z</time>
      </trkpt>
      <trkpt lat="50.28502" lon="1.71751">
        <ele>23.69</ele>
        <time>2014-07-14T08:14:24Z</time>
      </trkpt>
      <trkpt lat="50.28526" lon="1.7183">
        <ele>24.17</ele>
        <time>2014-07-14T08:14:33Z</time>
      </trkpt>
      <trkpt lat="50.28547" lon="1.71891">
        <ele>24.651</ele>
        <time>2014-07-14T08:14:40Z</time>
      </trkpt>
      <trkpt lat="50.28556" lon="1.71931">
        <ele>24.651</ele>
        <time>2014-07-14T08:14:45Z</time>
      </trkpt>
      <trkpt lat="50.28546" lon="1.71939">
        <ele>24.17</ele>
        <time>2014-07-14T08:14:48Z</time>
      </trkpt>
      <trkpt lat="50.28504" lon="1.71963">
        <ele>24.17</ele>
        <time>2014-07-14T08:14:56Z</time>
      </trkpt>
      <trkpt lat="50.28453" lon="1.71991">
        <ele>25.132</ele>
        <time>2014-07-14T08:15:05Z</time>
      </trkpt>
      <trkpt lat="50.28396" lon="1.72024">
        <ele>25.612</ele>
        <time>2014-07-14T08:15:15Z</time>
      </trkpt>
      <trkpt lat="50.28343" lon="1.72053">
        <ele>26.093</ele>
        <time>2014-07-14T08:15:24Z</time>
      </trkpt>
      <trkpt lat="50.28284" lon="1.72087">
        <ele>26.093</ele>
        <time>2014-07-14T08:15:34Z</time>
      </trkpt>
      <trkpt lat="50.28228" lon="1.72118">
        <ele>25.612</ele>
        <time>2014-07-14T08:15:43Z</time>
      </trkpt>
      <trkpt lat="50.2817" lon="1.72151">
        <ele>24.17</ele>
        <time>2014-07-14T08:15:52Z</time>
      </trkpt>
      <trkpt lat="50.28123" lon="1.72178">
        <ele>23.209</ele>
        <time>2014-07-14T08:15:59Z</time>
      </trkpt>
      <trkpt lat="50.28071" lon="1.72207">
        <ele>20.806</ele>
        <time>2014-07-14T08:16:06Z</time>
      </trkpt>
      <trkpt lat="50.28014" lon="1.72239">
        <ele>17.441</ele>
        <time>2014-07-14T08:16:13Z</time>
      </trkpt>
      <trkpt lat="50.27948" lon="1.72274">
        <ele>13.596</ele>
        <time>2014-07-14T08:16:20Z</time>
      </trkpt>
      <trkpt lat="50.27912" lon="1.72298">
        <ele>11.673</ele>
        <time>2014-07-14T08:16:24Z</time>
      </trkpt>
      <trkpt lat="50.27895" lon="1.72304">
        <ele>11.193</ele>
        <time>2014-07-14T08:16:27Z</time>
      </trkpt>
      <trkpt lat="50.27893" lon="1.7231">
        <ele>10.712</ele>
        <time>2014-07-14T08:16:31Z</time>
      </trkpt>
      <trkpt lat="50.27902" lon="1.72302">
        <ele>10.231</ele>
        <time>2014-07-14T08:16:36Z</time>
      </trkpt>
      <trkpt lat="50.27912" lon="1.72298">
        <ele>10.712</ele>
        <time>2014-07-14T08:16:40Z</time>
      </trkpt>
      <trkpt lat="50.27914" lon="1.72298">
        <ele>10.712</ele>
        <time>2014-07-14T08:16:41Z</time>
      </trkpt>
      <trkpt lat="50.27938" lon="1.72344">
        <ele>11.193</ele>
        <time>2014-07-14T08:16:49Z</time>
      </trkpt>
      <trkpt lat="50.27957" lon="1.72384">
        <ele>9.751</ele>
        <time>2014-07-14T08:16:55Z</time>
      </trkpt>
      <trkpt lat="50.27985" lon="1.72446">
        <ele>7.828</ele>
        <time>2014-07-14T08:17:03Z</time>
      </trkpt>
      <trkpt lat="50.28017" lon="1.72512">
        <ele>8.309</ele>
        <time>2014-07-14T08:17:11Z</time>
      </trkpt>
      <trkpt lat="50.28047" lon="1.72576">
        <ele>9.27</ele>
        <time>2014-07-14T08:17:19Z</time>
      </trkpt>
      <trkpt lat="50.28076" lon="1.72641">
        <ele>11.193</ele>
        <time>2014-07-14T08:17:27Z</time>
      </trkpt>
      <trkpt lat="50.28099" lon="1.72688">
        <ele>12.154</ele>
        <time>2014-07-14T08:17:33Z</time>
      </trkpt>
      <trkpt lat="50.28135" lon="1.72741">
        <ele>14.076</ele>
        <time>2014-07-14T08:17:41Z</time>
      </trkpt>
      <trkpt lat="50.28172" lon="1.72786">
        <ele>15.038</ele>
        <time>2014-07-14T08:17:49Z</time>
      </trkpt>
      <trkpt lat="50.28207" lon="1.72814">
        <ele>16.48</ele>
        <time>2014-07-14T08:17:56Z</time>
      </trkpt>
      <trkpt lat="50.28235" lon="1.72834">
        <ele>17.441</ele>
        <time>2014-07-14T08:18:03Z</time>
      </trkpt>
      <trkpt lat="50.28269" lon="1.72855">
        <ele>18.402</ele>
        <time>2014-07-14T08:18:11Z</time>
      </trkpt>
      <trkpt lat="50.28294" lon="1.72871">
        <ele>18.883</ele>
        <time>2014-07-14T08:18:17Z</time>
      </trkpt>
      <trkpt lat="50.28305" lon="1.72878">
        <ele>19.364</ele>
        <time>2014-07-14T08:18:22Z</time>
      </trkpt>
      <trkpt lat="50.28306" lon="1.72879">
        <ele>19.364</ele>
        <time>2014-07-14T08:18:25Z</time>
      </trkpt>
      <trkpt lat="50.28314" lon="1.72883">
        <ele>18.883</ele>
        <time>2014-07-14T08:21:49Z</time>
      </trkpt>
      <trkpt lat="50.28333" lon="1.72895">
        <ele>19.844</ele>
        <time>2014-07-14T08:21:55Z</time>
      </trkpt>
      <trkpt lat="50.28368" lon="1.7291">
        <ele>21.767</ele>
        <time>2014-07-14T08:22:03Z</time>
      </trkpt>
      <trkpt lat="50.28405" lon="1.72919">
        <ele>23.209</ele>
        <time>2014-07-14T08:22:10Z</time>
      </trkpt>
      <trkpt lat="50.28446" lon="1.7292">
        <ele>24.17</ele>
        <time>2014-07-14T08:22:18Z</time>
      </trkpt>
      <trkpt lat="50.28487" lon="1.7292">
        <ele>24.651</ele>
        <time>2014-07-14T08:22:27Z</time>
      </trkpt>
      <trkpt lat="50.28492" lon="1.7292">
        <ele>25.132</ele>
        <time>2014-07-14T08:22:28Z</time>
      </trkpt>
      <trkpt lat="50.28507" lon="1.7292">
        <ele>25.132</ele>
        <time>2014-07-14T08:22:31Z</time>
      </trkpt>
      <trkpt lat="50.28523" lon="1.72922">
        <ele>25.132</ele>
        <time>2014-07-14T08:22:34Z</time>
      </trkpt>
      <trkpt lat="50.28555" lon="1.72943">
        <ele>26.093</ele>
        <time>2014-07-14T08:22:41Z</time>
      </trkpt>
      <trkpt lat="50.28582" lon="1.72979">
        <ele>26.574</ele>
        <time>2014-07-14T08:22:48Z</time>
      </trkpt>
      <trkpt lat="50.28618" lon="1.73035">
        <ele>27.535</ele>
        <time>2014-07-14T08:22:57Z</time>
      </trkpt>
      <trkpt lat="50.28643" lon="1.73081">
        <ele>28.977</ele>
        <time>2014-07-14T08:23:04Z</time>
      </trkpt>
      <trkpt lat="50.28674" lon="1.73149">
        <ele>30.9</ele>
        <time>2014-07-14T08:23:14Z</time>
      </trkpt>
      <trkpt lat="50.28703" lon="1.73216">
        <ele>30.419</ele>
        <time>2014-07-14T08:23:23Z</time>
      </trkpt>
      <trkpt lat="50.28728" lon="1.73275">
        <ele>28.496</ele>
        <time>2014-07-14T08:23:30Z</time>
      </trkpt>
      <trkpt lat="50.28739" lon="1.73303">
        <ele>28.016</ele>
        <time>2014-07-14T08:23:33Z</time>
      </trkpt>
      <trkpt lat="50.28752" lon="1.73333">
        <ele>27.054</ele>
        <time>2014-07-14T08:23:37Z</time>
      </trkpt>
      <trkpt lat="50.28755" lon="1.73342">
        <ele>27.535</ele>
        <time>2014-07-14T08:23:39Z</time>
      </trkpt>
      <trkpt lat="50.28762" lon="1.73359">
        <ele>27.535</ele>
        <time>2014-07-14T08:23:45Z</time>
      </trkpt>
      <trkpt lat="50.28774" lon="1.73391">
        <ele>28.016</ele>
        <time>2014-07-14T08:23:51Z</time>
      </trkpt>
      <trkpt lat="50.28795" lon="1.73439">
        <ele>28.496</ele>
        <time>2014-07-14T08:23:58Z</time>
      </trkpt>
      <trkpt lat="50.28831" lon="1.73509">
        <ele>29.938</ele>
        <time>2014-07-14T08:24:08Z</time>
      </trkpt>
      <trkpt lat="50.28849" lon="1.73543">
        <ele>30.419</ele>
        <time>2014-07-14T08:24:13Z</time>
      </trkpt>
      <trkpt lat="50.2887" lon="1.7359">
        <ele>30.9</ele>
        <time>2014-07-14T08:24:20Z</time>
      </trkpt>
      <trkpt lat="50.28883" lon="1.73619">
        <ele>30.419</ele>
        <time>2014-07-14T08:24:24Z</time>
      </trkpt>
      <trkpt lat="50.28911" lon="1.73685">
        <ele>30.9</ele>
        <time>2014-07-14T08:24:32Z</time>
      </trkpt>
      <trkpt lat="50.28936" lon="1.73742">
        <ele>29.458</ele>
        <time>2014-07-14T08:24:39Z</time>
      </trkpt>
      <trkpt lat="50.28957" lon="1.73789">
        <ele>29.938</ele>
        <time>2014-07-14T08:24:45Z</time>
      </trkpt>
      <trkpt lat="50.28968" lon="1.73855">
        <ele>29.458</ele>
        <time>2014-07-14T08:24:52Z</time>
      </trkpt>
      <trkpt lat="50.28981" lon="1.73962">
        <ele>29.938</ele>
        <time>2014-07-14T08:25:03Z</time>
      </trkpt>
      <trkpt lat="50.28994" lon="1.74049">
        <ele>28.977</ele>
        <time>2014-07-14T08:25:12Z</time>
      </trkpt>
      <trkpt lat="50.29004" lon="1.7412">
        <ele>31.38</ele>
        <time>2014-07-14T08:25:19Z</time>
      </trkpt>
      <trkpt lat="50.29008" lon="1.74211">
        <ele>31.861</ele>
        <time>2014-07-14T08:25:28Z</time>
      </trkpt>
      <trkpt lat="50.29009" lon="1.74301">
        <ele>32.822</ele>
        <time>2014-07-14T08:25:37Z</time>
      </trkpt>
      <trkpt lat="50.29009" lon="1.74379">
        <ele>33.303</ele>
        <time>2014-07-14T08:25:45Z</time>
      </trkpt>
      <trkpt lat="50.29005" lon="1.74416">
        <ele>33.783</ele>
        <time>2014-07-14T08:25:49Z</time>
      </trkpt>
      <trkpt lat="50.28995" lon="1.74415">
        <ele>33.783</ele>
        <time>2014-07-14T08:25:52Z</time>
      </trkpt>
      <trkpt lat="50.28959" lon="1.74409">
        <ele>33.783</ele>
        <time>2014-07-14T08:25:59Z</time>
      </trkpt>
      <trkpt lat="50.2891" lon="1.74402">
        <ele>34.264</ele>
        <time>2014-07-14T08:26:07Z</time>
      </trkpt>
      <trkpt lat="50.28847" lon="1.74392">
        <ele>34.745</ele>
        <time>2014-07-14T08:26:16Z</time>
      </trkpt>
      <trkpt lat="50.28781" lon="1.74382">
        <ele>35.225</ele>
        <time>2014-07-14T08:26:25Z</time>
      </trkpt>
      <trkpt lat="50.28713" lon="1.74373">
        <ele>35.706</ele>
        <time>2014-07-14T08:26:34Z</time>
      </trkpt>
      <trkpt lat="50.28644" lon="1.74362">
        <ele>36.187</ele>
        <time>2014-07-14T08:26:43Z</time>
      </trkpt>
      <trkpt lat="50.28574" lon="1.74351">
        <ele>36.667</ele>
        <time>2014-07-14T08:26:52Z</time>
      </trkpt>
      <trkpt lat="50.28511" lon="1.74341">
        <ele>36.187</ele>
        <time>2014-07-14T08:27:00Z</time>
      </trkpt>
      <trkpt lat="50.28416" lon="1.74327">
        <ele>35.225</ele>
        <time>2014-07-14T08:27:12Z</time>
      </trkpt>
      <trkpt lat="50.28346" lon="1.74317">
        <ele>34.264</ele>
        <time>2014-07-14T08:27:21Z</time>
      </trkpt>
      <trkpt lat="50.28293" lon="1.7431">
        <ele>34.264</ele>
        <time>2014-07-14T08:27:28Z</time>
      </trkpt>
      <trkpt lat="50.28252" lon="1.74304">
        <ele>34.264</ele>
        <time>2014-07-14T08:27:34Z</time>
      </trkpt>
      <trkpt lat="50.2823" lon="1.74316">
        <ele>34.264</ele>
        <time>2014-07-14T08:27:38Z</time>
      </trkpt>
      <trkpt lat="50.28235" lon="1.74336">
        <ele>34.264</ele>
        <time>2014-07-14T08:27:41Z</time>
      </trkpt>
      <trkpt lat="50.28237" lon="1.74344">
        <ele>34.264</ele>
        <time>2014-07-14T08:27:42Z</time>
      </trkpt>
      <trkpt lat="50.28262" lon="1.74421">
        <ele>34.745</ele>
        <time>2014-07-14T08:27:51Z</time>
      </trkpt>
      <trkpt lat="50.2829" lon="1.74503">
        <ele>35.706</ele>
        <time>2014-07-14T08:28:00Z</time>
      </trkpt>
      <trkpt lat="50.28317" lon="1.74586">
        <ele>36.187</ele>
        <time>2014-07-14T08:28:09Z</time>
      </trkpt>
      <trkpt lat="50.2835" lon="1.74688">
        <ele>36.187</ele>
        <time>2014-07-14T08:28:20Z</time>
      </trkpt>
      <trkpt lat="50.28379" lon="1.74778">
        <ele>37.148</ele>
        <time>2014-07-14T08:28:30Z</time>
      </trkpt>
      <trkpt lat="50.28406" lon="1.74857">
        <ele>38.109</ele>
        <time>2014-07-14T08:28:39Z</time>
      </trkpt>
      <trkpt lat="50.28437" lon="1.74954">
        <ele>38.59</ele>
        <time>2014-07-14T08:28:50Z</time>
      </trkpt>
      <trkpt lat="50.28461" lon="1.75031">
        <ele>39.551</ele>
        <time>2014-07-14T08:28:59Z</time>
      </trkpt>
      <trkpt lat="50.28486" lon="1.75109">
        <ele>40.032</ele>
        <time>2014-07-14T08:29:08Z</time>
      </trkpt>
      <trkpt lat="50.28506" lon="1.75169">
        <ele>40.513</ele>
        <time>2014-07-14T08:29:15Z</time>
      </trkpt>
      <trkpt lat="50.28528" lon="1.75216">
        <ele>40.513</ele>
        <time>2014-07-14T08:29:21Z</time>
      </trkpt>
      <trkpt lat="50.28536" lon="1.75229">
        <ele>40.513</ele>
        <time>2014-07-14T08:29:23Z</time>
      </trkpt>
      <trkpt lat="50.28546" lon="1.75255">
        <ele>40.032</ele>
        <time>2014-07-14T08:29:27Z</time>
      </trkpt>
      <trkpt lat="50.28536" lon="1.75266">
        <ele>40.032</ele>
        <time>2014-07-14T08:29:30Z</time>
      </trkpt>
      <trkpt lat="50.28497" lon="1.75301">
        <ele>40.032</ele>
        <time>2014-07-14T08:29:38Z</time>
      </trkpt>
      <trkpt lat="50.28442" lon="1.75347">
        <ele>40.513</ele>
        <time>2014-07-14T08:29:48Z</time>
      </trkpt>
      <trkpt lat="50.28396" lon="1.75384">
        <ele>40.513</ele>
        <time>2014-07-14T08:29:56Z</time>
      </trkpt>
      <trkpt lat="50.28356" lon="1.75418">
        <ele>40.993</ele>
        <time>2014-07-14T08:30:03Z</time>
      </trkpt>
      <trkpt lat="50.283" lon="1.75465">
        <ele>40.993</ele>
        <time>2014-07-14T08:30:13Z</time>
      </trkpt>
      <trkpt lat="50.28284" lon="1.75478">
        <ele>40.993</ele>
        <time>2014-07-14T08:30:16Z</time>
      </trkpt>
      <trkpt lat="50.28265" lon="1.755">
        <ele>40.993</ele>
        <time>2014-07-14T08:30:20Z</time>
      </trkpt>
      <trkpt lat="50.28268" lon="1.75513">
        <ele>40.993</ele>
        <time>2014-07-14T08:30:22Z</time>
      </trkpt>
      <trkpt lat="50.28285" lon="1.75602">
        <ele>40.993</ele>
        <time>2014-07-14T08:30:32Z</time>
      </trkpt>
      <trkpt lat="50.28293" lon="1.75654">
        <ele>40.032</ele>
        <time>2014-07-14T08:30:38Z</time>
      </trkpt>
      <trkpt lat="50.28296" lon="1.75731">
        <ele>39.551</ele>
        <time>2014-07-14T08:30:46Z</time>
      </trkpt>
      <trkpt lat="50.28295" lon="1.75831">
        <ele>40.513</ele>
        <time>2014-07-14T08:30:56Z</time>
      </trkpt>
      <trkpt lat="50.28294" lon="1.75932">
        <ele>41.474</ele>
        <time>2014-07-14T08:31:06Z</time>
      </trkpt>
      <trkpt lat="50.28294" lon="1.76016">
        <ele>41.474</ele>
        <time>2014-07-14T08:31:14Z</time>
      </trkpt>
      <trkpt lat="50.28294" lon="1.76106">
        <ele>41.474</ele>
        <time>2014-07-14T08:31:22Z</time>
      </trkpt>
      <trkpt lat="50.28291" lon="1.76188">
        <ele>41.474</ele>
        <time>2014-07-14T08:31:29Z</time>
      </trkpt>
      <trkpt lat="50.28277" lon="1.76243">
        <ele>40.513</ele>
        <time>2014-07-14T08:31:34Z</time>
      </trkpt>
      <trkpt lat="50.28238" lon="1.76336">
        <ele>38.109</ele>
        <time>2014-07-14T08:31:43Z</time>
      </trkpt>
      <trkpt lat="50.28212" lon="1.76404">
        <ele>35.706</ele>
        <time>2014-07-14T08:31:49Z</time>
      </trkpt>
      <trkpt lat="50.28193" lon="1.76487">
        <ele>32.342</ele>
        <time>2014-07-14T08:31:55Z</time>
      </trkpt>
      <trkpt lat="50.28174" lon="1.76577">
        <ele>28.496</ele>
        <time>2014-07-14T08:32:01Z</time>
      </trkpt>
      <trkpt lat="50.28153" lon="1.76621">
        <ele>25.612</ele>
        <time>2014-07-14T08:32:05Z</time>
      </trkpt>
      <trkpt lat="50.28144" lon="1.76628">
        <ele>25.132</ele>
        <time>2014-07-14T08:32:06Z</time>
      </trkpt>
      <trkpt lat="50.28091" lon="1.76653">
        <ele>23.209</ele>
        <time>2014-07-14T08:32:12Z</time>
      </trkpt>
      <trkpt lat="50.28062" lon="1.76681">
        <ele>20.806</ele>
        <time>2014-07-14T08:32:16Z</time>
      </trkpt>
      <trkpt lat="50.28054" lon="1.76715">
        <ele>19.364</ele>
        <time>2014-07-14T08:32:19Z</time>
      </trkpt>
      <trkpt lat="50.28056" lon="1.76727">
        <ele>18.883</ele>
        <time>2014-07-14T08:32:20Z</time>
      </trkpt>
      <trkpt lat="50.28073" lon="1.76797">
        <ele>13.596</ele>
        <time>2014-07-14T08:32:26Z</time>
      </trkpt>
      <trkpt lat="50.28082" lon="1.76833">
        <ele>12.154</ele>
        <time>2014-07-14T08:32:30Z</time>
      </trkpt>
      <trkpt lat="50.28095" lon="1.76883">
        <ele>9.751</ele>
        <time>2014-07-14T08:32:36Z</time>
      </trkpt>
      <trkpt lat="50.28097" lon="1.76893">
        <ele>9.751</ele>
        <time>2014-07-14T08:32:37Z</time>
      </trkpt>
      <trkpt lat="50.28103" lon="1.76948">
        <ele>8.789</ele>
        <time>2014-07-14T08:32:42Z</time>
      </trkpt>
      <trkpt lat="50.281" lon="1.7697">
        <ele>9.751</ele>
        <time>2014-07-14T08:32:44Z</time>
      </trkpt>
      <trkpt lat="50.28101" lon="1.77013">
        <ele>10.712</ele>
        <time>2014-07-14T08:32:48Z</time>
      </trkpt>
      <trkpt lat="50.28116" lon="1.7706">
        <ele>11.673</ele>
        <time>2014-07-14T08:32:53Z</time>
      </trkpt>
      <trkpt lat="50.28137" lon="1.77076">
        <ele>13.596</ele>
        <time>2014-07-14T08:32:57Z</time>
      </trkpt>
      <trkpt lat="50.28169" lon="1.771">
        <ele>15.038</ele>
        <time>2014-07-14T08:33:03Z</time>
      </trkpt>
      <trkpt lat="50.28175" lon="1.77122">
        <ele>15.518</ele>
        <time>2014-07-14T08:33:06Z</time>
      </trkpt>
      <trkpt lat="50.28175" lon="1.77136">
        <ele>15.999</ele>
        <time>2014-07-14T08:33:08Z</time>
      </trkpt>
      <trkpt lat="50.28174" lon="1.77152">
        <ele>15.999</ele>
        <time>2014-07-14T08:33:12Z</time>
      </trkpt>
      <trkpt lat="50.28152" lon="1.77147">
        <ele>15.999</ele>
        <time>2014-07-14T08:33:17Z</time>
      </trkpt>
      <trkpt lat="50.28107" lon="1.77149">
        <ele>15.518</ele>
        <time>2014-07-14T08:33:25Z</time>
      </trkpt>
      <trkpt lat="50.28095" lon="1.7715">
        <ele>15.518</ele>
        <time>2014-07-14T08:33:27Z</time>
      </trkpt>
      <trkpt lat="50.2807" lon="1.77157">
        <ele>15.038</ele>
        <time>2014-07-14T08:33:31Z</time>
      </trkpt>
      <trkpt lat="50.28039" lon="1.77191">
        <ele>14.076</ele>
        <time>2014-07-14T08:33:37Z</time>
      </trkpt>
      <trkpt lat="50.28018" lon="1.77218">
        <ele>14.076</ele>
        <time>2014-07-14T08:33:41Z</time>
      </trkpt>
      <trkpt lat="50.28032" lon="1.7724">
        <ele>15.038</ele>
        <time>2014-07-14T08:33:45Z</time>
      </trkpt>
      <trkpt lat="50.28044" lon="1.77262">
        <ele>15.999</ele>
        <time>2014-07-14T08:33:51Z</time>
      </trkpt>
      <trkpt lat="50.28046" lon="1.77265">
        <ele>16.48</ele>
        <time>2014-07-14T08:33:52Z</time>
      </trkpt>
      <trkpt lat="50.2806" lon="1.77279">
        <ele>17.922</ele>
        <time>2014-07-14T08:33:58Z</time>
      </trkpt>
      <trkpt lat="50.28084" lon="1.77272">
        <ele>20.806</ele>
        <time>2014-07-14T08:34:06Z</time>
      </trkpt>
      <trkpt lat="50.28108" lon="1.77268">
        <ele>22.728</ele>
        <time>2014-07-14T08:34:13Z</time>
      </trkpt>
      <trkpt lat="50.28136" lon="1.77271">
        <ele>25.612</ele>
        <time>2014-07-14T08:34:21Z</time>
      </trkpt>
      <trkpt lat="50.2816" lon="1.77277">
        <ele>27.535</ele>
        <time>2014-07-14T08:34:28Z</time>
      </trkpt>
      <trkpt lat="50.28184" lon="1.77285">
        <ele>28.496</ele>
        <time>2014-07-14T08:34:35Z</time>
      </trkpt>
      <trkpt lat="50.28198" lon="1.77299">
        <ele>28.496</ele>
        <time>2014-07-14T08:34:40Z</time>
      </trkpt>
      <trkpt lat="50.28208" lon="1.77315">
        <ele>28.016</ele>
        <time>2014-07-14T08:34:45Z</time>
      </trkpt>
      <trkpt lat="50.28232" lon="1.77352">
        <ele>27.535</ele>
        <time>2014-07-14T08:34:53Z</time>
      </trkpt>
      <trkpt lat="50.28258" lon="1.77395">
        <ele>26.574</ele>
        <time>2014-07-14T08:35:00Z</time>
      </trkpt>
      <trkpt lat="50.28266" lon="1.77408">
        <ele>27.054</ele>
        <time>2014-07-14T08:35:02Z</time>
      </trkpt>
      <trkpt lat="50.28286" lon="1.77463">
        <ele>28.016</ele>
        <time>2014-07-14T08:35:10Z</time>
      </trkpt>
      <trkpt lat="50.28296" lon="1.77511">
        <ele>28.496</ele>
        <time>2014-07-14T08:35:17Z</time>
      </trkpt>
      <trkpt lat="50.283" lon="1.77575">
        <ele>29.938</ele>
        <time>2014-07-14T08:35:26Z</time>
      </trkpt>
      <trkpt lat="50.283" lon="1.77629">
        <ele>30.9</ele>
        <time>2014-07-14T08:35:33Z</time>
      </trkpt>
      <trkpt lat="50.28299" lon="1.77695">
        <ele>32.822</ele>
        <time>2014-07-14T08:35:42Z</time>
      </trkpt>
      <trkpt lat="50.28299" lon="1.77718">
        <ele>33.303</ele>
        <time>2014-07-14T08:35:45Z</time>
      </trkpt>
      <trkpt lat="50.283" lon="1.77748">
        <ele>34.745</ele>
        <time>2014-07-14T08:35:49Z</time>
      </trkpt>
      <trkpt lat="50.28302" lon="1.77773">
        <ele>36.187</ele>
        <time>2014-07-14T08:35:53Z</time>
      </trkpt>
      <trkpt lat="50.28312" lon="1.77825">
        <ele>34.745</ele>
        <time>2014-07-14T08:36:00Z</time>
      </trkpt>
      <trkpt lat="50.28325" lon="1.77877">
        <ele>35.706</ele>
        <time>2014-07-14T08:36:07Z</time>
      </trkpt>
      <trkpt lat="50.28335" lon="1.77905">
        <ele>36.667</ele>
        <time>2014-07-14T08:36:11Z</time>
      </trkpt>
      <trkpt lat="50.28362" lon="1.77947">
        <ele>39.071</ele>
        <time>2014-07-14T08:36:19Z</time>
      </trkpt>
      <trkpt lat="50.28397" lon="1.78">
        <ele>42.435</ele>
        <time>2014-07-14T08:36:29Z</time>
      </trkpt>
      <trkpt lat="50.28424" lon="1.78044">
        <ele>44.358</ele>
        <time>2014-07-14T08:36:37Z</time>
      </trkpt>
      <trkpt lat="50.2845" lon="1.78089">
        <ele>44.839</ele>
        <time>2014-07-14T08:36:45Z</time>
      </trkpt>
      <trkpt lat="50.28473" lon="1.7812">
        <ele>44.358</ele>
        <time>2014-07-14T08:36:51Z</time>
      </trkpt>
      <trkpt lat="50.28517" lon="1.78157">
        <ele>44.358</ele>
        <time>2014-07-14T08:37:01Z</time>
      </trkpt>
      <trkpt lat="50.28535" lon="1.78167">
        <ele>44.358</ele>
        <time>2014-07-14T08:37:05Z</time>
      </trkpt>
      <trkpt lat="50.28561" lon="1.78181">
        <ele>46.761</ele>
        <time>2014-07-14T08:37:11Z</time>
      </trkpt>
      <trkpt lat="50.286" lon="1.78197">
        <ele>46.761</ele>
        <time>2014-07-14T08:37:19Z</time>
      </trkpt>
      <trkpt lat="50.28632" lon="1.78205">
        <ele>44.839</ele>
        <time>2014-07-14T08:37:25Z</time>
      </trkpt>
      <trkpt lat="50.28649" lon="1.78209">
        <ele>44.358</ele>
        <time>2014-07-14T08:37:28Z</time>
      </trkpt>
      <trkpt lat="50.28674" lon="1.78225">
        <ele>44.358</ele>
        <time>2014-07-14T08:37:33Z</time>
      </trkpt>
      <trkpt lat="50.28687" lon="1.78247">
        <ele>44.358</ele>
        <time>2014-07-14T08:37:37Z</time>
      </trkpt>
      <trkpt lat="50.28685" lon="1.78261">
        <ele>43.877</ele>
        <time>2014-07-14T08:37:41Z</time>
      </trkpt>
      <trkpt lat="50.28679" lon="1.78269">
        <ele>43.877</ele>
        <time>2014-07-14T08:37:44Z</time>
      </trkpt>
      <trkpt lat="50.28665" lon="1.78286">
        <ele>43.877</ele>
        <time>2014-07-14T08:37:50Z</time>
      </trkpt>
      <trkpt lat="50.28646" lon="1.78311">
        <ele>43.877</ele>
        <time>2014-07-14T08:37:58Z</time>
      </trkpt>
      <trkpt lat="50.28632" lon="1.78329">
        <ele>43.877</ele>
        <time>2014-07-14T08:38:06Z</time>
      </trkpt>
      <trkpt lat="50.28621" lon="1.78344">
        <ele>44.358</ele>
        <time>2014-07-14T08:38:13Z</time>
      </trkpt>
      <trkpt lat="50.28612" lon="1.78357">
        <ele>42.916</ele>
        <time>2014-07-14T08:38:21Z</time>
      </trkpt>
      <trkpt lat="50.28602" lon="1.78373">
        <ele>41.955</ele>
        <time>2014-07-14T08:38:29Z</time>
      </trkpt>
      <trkpt lat="50.28597" lon="1.78381">
        <ele>41.955</ele>
        <time>2014-07-14T08:38:35Z</time>
      </trkpt>
      <trkpt lat="50.28586" lon="1.78398">
        <ele>41.474</ele>
        <time>2014-07-14T08:38:42Z</time>
      </trkpt>
      <trkpt lat="50.28577" lon="1.78414">
        <ele>42.435</ele>
        <time>2014-07-14T08:38:49Z</time>
      </trkpt>
      <trkpt lat="50.28566" lon="1.78435">
        <ele>43.877</ele>
        <time>2014-07-14T08:38:58Z</time>
      </trkpt>
      <trkpt lat="50.28558" lon="1.78451">
        <ele>44.839</ele>
        <time>2014-07-14T08:39:04Z</time>
      </trkpt>
      <trkpt lat="50.28547" lon="1.78474">
        <ele>43.877</ele>
        <time>2014-07-14T08:39:11Z</time>
      </trkpt>
      <trkpt lat="50.28538" lon="1.78493">
        <ele>43.877</ele>
        <time>2014-07-14T08:39:17Z</time>
      </trkpt>
      <trkpt lat="50.28531" lon="1.78511">
        <ele>43.877</ele>
        <time>2014-07-14T08:39:23Z</time>
      </trkpt>
      <trkpt lat="50.28522" lon="1.78532">
        <ele>42.435</ele>
        <time>2014-07-14T08:39:30Z</time>
      </trkpt>
      <trkpt lat="50.2851" lon="1.78562">
        <ele>42.435</ele>
        <time>2014-07-14T08:39:38Z</time>
      </trkpt>
      <trkpt lat="50.28499" lon="1.7859">
        <ele>42.916</ele>
        <time>2014-07-14T08:39:45Z</time>
      </trkpt>
      <trkpt lat="50.28486" lon="1.78621">
        <ele>42.916</ele>
        <time>2014-07-14T08:39:53Z</time>
      </trkpt>
      <trkpt lat="50.28476" lon="1.78645">
        <ele>42.435</ele>
        <time>2014-07-14T08:40:00Z</time>
      </trkpt>
      <trkpt lat="50.28462" lon="1.78677">
        <ele>42.435</ele>
        <time>2014-07-14T08:40:09Z</time>
      </trkpt>
      <trkpt lat="50.28453" lon="1.78695">
        <ele>42.916</ele>
        <time>2014-07-14T08:40:15Z</time>
      </trkpt>
      <trkpt lat="50.28442" lon="1.78716">
        <ele>42.916</ele>
        <time>2014-07-14T08:40:22Z</time>
      </trkpt>
      <trkpt lat="50.28433" lon="1.78732">
        <ele>43.397</ele>
        <time>2014-07-14T08:40:28Z</time>
      </trkpt>
      <trkpt lat="50.28423" lon="1.78746">
        <ele>43.397</ele>
        <time>2014-07-14T08:40:34Z</time>
      </trkpt>
      <trkpt lat="50.28415" lon="1.78758">
        <ele>43.877</ele>
        <time>2014-07-14T08:40:38Z</time>
      </trkpt>
      <trkpt lat="50.28408" lon="1.78766">
        <ele>43.877</ele>
        <time>2014-07-14T08:40:42Z</time>
      </trkpt>
      <trkpt lat="50.2839" lon="1.78782">
        <ele>43.397</ele>
        <time>2014-07-14T08:40:50Z</time>
      </trkpt>
      <trkpt lat="50.2838" lon="1.78791">
        <ele>43.397</ele>
        <time>2014-07-14T08:40:55Z</time>
      </trkpt>
      <trkpt lat="50.28376" lon="1.78807">
        <ele>44.839</ele>
        <time>2014-07-14T08:41:04Z</time>
      </trkpt>
      <trkpt lat="50.2838" lon="1.78835">
        <ele>44.358</ele>
        <time>2014-07-14T08:41:10Z</time>
      </trkpt>
      <trkpt lat="50.28384" lon="1.78867">
        <ele>41.955</ele>
        <time>2014-07-14T08:41:16Z</time>
      </trkpt>
      <trkpt lat="50.28387" lon="1.78891">
        <ele>41.474</ele>
        <time>2014-07-14T08:41:21Z</time>
      </trkpt>
      <trkpt lat="50.28391" lon="1.78924">
        <ele>40.513</ele>
        <time>2014-07-14T08:41:28Z</time>
      </trkpt>
      <trkpt lat="50.28395" lon="1.78956">
        <ele>40.032</ele>
        <time>2014-07-14T08:41:35Z</time>
      </trkpt>
      <trkpt lat="50.28399" lon="1.78991">
        <ele>40.032</ele>
        <time>2014-07-14T08:41:42Z</time>
      </trkpt>
      <trkpt lat="50.28402" lon="1.79018">
        <ele>40.032</ele>
        <time>2014-07-14T08:41:48Z</time>
      </trkpt>
      <trkpt lat="50.28406" lon="1.79042">
        <ele>40.032</ele>
        <time>2014-07-14T08:41:53Z</time>
      </trkpt>
      <trkpt lat="50.28409" lon="1.79063">
        <ele>39.071</ele>
        <time>2014-07-14T08:41:57Z</time>
      </trkpt>
      <trkpt lat="50.28413" lon="1.79092">
        <ele>38.109</ele>
        <time>2014-07-14T08:42:03Z</time>
      </trkpt>
      <trkpt lat="50.28417" lon="1.79116">
        <ele>38.109</ele>
        <time>2014-07-14T08:42:08Z</time>
      </trkpt>
      <trkpt lat="50.2842" lon="1.79139">
        <ele>39.071</ele>
        <time>2014-07-14T08:42:13Z</time>
      </trkpt>
      <trkpt lat="50.28425" lon="1.79173">
        <ele>38.59</ele>
        <time>2014-07-14T08:42:19Z</time>
      </trkpt>
      <trkpt lat="50.28429" lon="1.79205">
        <ele>38.59</ele>
        <time>2014-07-14T08:42:25Z</time>
      </trkpt>
      <trkpt lat="50.28431" lon="1.79217">
        <ele>39.071</ele>
        <time>2014-07-14T08:42:28Z</time>
      </trkpt>
      <trkpt lat="50.28441" lon="1.79235">
        <ele>40.032</ele>
        <time>2014-07-14T08:42:35Z</time>
      </trkpt>
      <trkpt lat="50.28453" lon="1.79246">
        <ele>40.513</ele>
        <time>2014-07-14T08:42:43Z</time>
      </trkpt>
      <trkpt lat="50.28459" lon="1.79258">
        <ele>42.435</ele>
        <time>2014-07-14T08:42:49Z</time>
      </trkpt>
      <trkpt lat="50.28463" lon="1.79267">
        <ele>42.435</ele>
        <time>2014-07-14T08:42:54Z</time>
      </trkpt>
      <trkpt lat="50.28466" lon="1.79273">
        <ele>43.397</ele>
        <time>2014-07-14T08:42:57Z</time>
      </trkpt>
      <trkpt lat="50.28471" lon="1.79289">
        <ele>44.839</ele>
        <time>2014-07-14T08:43:04Z</time>
      </trkpt>
      <trkpt lat="50.28476" lon="1.79313">
        <ele>46.281</ele>
        <time>2014-07-14T08:43:10Z</time>
      </trkpt>
      <trkpt lat="50.28482" lon="1.7934">
        <ele>47.723</ele>
        <time>2014-07-14T08:43:18Z</time>
      </trkpt>
      <trkpt lat="50.28488" lon="1.79368">
        <ele>48.684</ele>
        <time>2014-07-14T08:43:25Z</time>
      </trkpt>
      <trkpt lat="50.28497" lon="1.79411">
        <ele>49.165</ele>
        <time>2014-07-14T08:43:32Z</time>
      </trkpt>
      <trkpt lat="50.2851" lon="1.79472">
        <ele>49.645</ele>
        <time>2014-07-14T08:43:40Z</time>
      </trkpt>
      <trkpt lat="50.28525" lon="1.79549">
        <ele>49.645</ele>
        <time>2014-07-14T08:43:49Z</time>
      </trkpt>
      <trkpt lat="50.28541" lon="1.79641">
        <ele>49.165</ele>
        <time>2014-07-14T08:43:58Z</time>
      </trkpt>
      <trkpt lat="50.28549" lon="1.79703">
        <ele>48.203</ele>
        <time>2014-07-14T08:44:04Z</time>
      </trkpt>
      <trkpt lat="50.2855" lon="1.79802">
        <ele>45.8</ele>
        <time>2014-07-14T08:44:12Z</time>
      </trkpt>
      <trkpt lat="50.2855" lon="1.79842">
        <ele>44.839</ele>
        <time>2014-07-14T08:44:15Z</time>
      </trkpt>
      <trkpt lat="50.28559" lon="1.79892">
        <ele>44.839</ele>
        <time>2014-07-14T08:44:19Z</time>
      </trkpt>
      <trkpt lat="50.28577" lon="1.79916">
        <ele>45.319</ele>
        <time>2014-07-14T08:44:22Z</time>
      </trkpt>
      <trkpt lat="50.28626" lon="1.79965">
        <ele>46.761</ele>
        <time>2014-07-14T08:44:30Z</time>
      </trkpt>
      <trkpt lat="50.28682" lon="1.80022">
        <ele>48.684</ele>
        <time>2014-07-14T08:44:40Z</time>
      </trkpt>
      <trkpt lat="50.28731" lon="1.80081">
        <ele>50.126</ele>
        <time>2014-07-14T08:44:49Z</time>
      </trkpt>
      <trkpt lat="50.28777" lon="1.80157">
        <ele>51.087</ele>
        <time>2014-07-14T08:44:59Z</time>
      </trkpt>
      <trkpt lat="50.28813" lon="1.80202">
        <ele>52.529</ele>
        <time>2014-07-14T08:45:06Z</time>
      </trkpt>
      <trkpt lat="50.28863" lon="1.8025">
        <ele>53.971</ele>
        <time>2014-07-14T08:45:15Z</time>
      </trkpt>
      <trkpt lat="50.28909" lon="1.80306">
        <ele>54.932</ele>
        <time>2014-07-14T08:45:24Z</time>
      </trkpt>
      <trkpt lat="50.28937" lon="1.80362">
        <ele>55.413</ele>
        <time>2014-07-14T08:45:31Z</time>
      </trkpt>
      <trkpt lat="50.28947" lon="1.804">
        <ele>55.413</ele>
        <time>2014-07-14T08:45:35Z</time>
      </trkpt>
      <trkpt lat="50.2896" lon="1.80502">
        <ele>56.375</ele>
        <time>2014-07-14T08:45:45Z</time>
      </trkpt>
      <trkpt lat="50.28974" lon="1.80597">
        <ele>57.817</ele>
        <time>2014-07-14T08:45:54Z</time>
      </trkpt>
      <trkpt lat="50.28978" lon="1.8065">
        <ele>58.297</ele>
        <time>2014-07-14T08:45:59Z</time>
      </trkpt>
      <trkpt lat="50.28978" lon="1.80745">
        <ele>59.258</ele>
        <time>2014-07-14T08:46:08Z</time>
      </trkpt>
      <trkpt lat="50.28977" lon="1.80838">
        <ele>60.22</ele>
        <time>2014-07-14T08:46:17Z</time>
      </trkpt>
      <trkpt lat="50.28973" lon="1.80953">
        <ele>61.662</ele>
        <time>2014-07-14T08:46:28Z</time>
      </trkpt>
      <trkpt lat="50.28968" lon="1.8107">
        <ele>61.662</ele>
        <time>2014-07-14T08:46:39Z</time>
      </trkpt>
      <trkpt lat="50.2896" lon="1.81153">
        <ele>62.142</ele>
        <time>2014-07-14T08:46:47Z</time>
      </trkpt>
      <trkpt lat="50.28954" lon="1.81216">
        <ele>62.623</ele>
        <time>2014-07-14T08:46:53Z</time>
      </trkpt>
      <trkpt lat="50.28942" lon="1.81316">
        <ele>63.104</ele>
        <time>2014-07-14T08:47:03Z</time>
      </trkpt>
      <trkpt lat="50.28941" lon="1.81326">
        <ele>63.104</ele>
        <time>2014-07-14T08:47:04Z</time>
      </trkpt>
      <trkpt lat="50.28946" lon="1.81362">
        <ele>62.623</ele>
        <time>2014-07-14T08:47:08Z</time>
      </trkpt>
      <trkpt lat="50.28982" lon="1.81434">
        <ele>61.662</ele>
        <time>2014-07-14T08:47:17Z</time>
      </trkpt>
      <trkpt lat="50.29021" lon="1.81513">
        <ele>60.7</ele>
        <time>2014-07-14T08:47:26Z</time>
      </trkpt>
      <trkpt lat="50.29061" lon="1.81597">
        <ele>60.22</ele>
        <time>2014-07-14T08:47:35Z</time>
      </trkpt>
      <trkpt lat="50.29095" lon="1.81669">
        <ele>58.778</ele>
        <time>2014-07-14T08:47:43Z</time>
      </trkpt>
      <trkpt lat="50.29107" lon="1.817">
        <ele>58.297</ele>
        <time>2014-07-14T08:47:47Z</time>
      </trkpt>
      <trkpt lat="50.29102" lon="1.81717">
        <ele>58.297</ele>
        <time>2014-07-14T08:47:51Z</time>
      </trkpt>
      <trkpt lat="50.29079" lon="1.8175">
        <ele>58.297</ele>
        <time>2014-07-14T08:47:57Z</time>
      </trkpt>
      <trkpt lat="50.29055" lon="1.81793">
        <ele>58.297</ele>
        <time>2014-07-14T08:48:03Z</time>
      </trkpt>
      <trkpt lat="50.29051" lon="1.818">
        <ele>57.817</ele>
        <time>2014-07-14T08:48:04Z</time>
      </trkpt>
      <trkpt lat="50.29036" lon="1.81855">
        <ele>57.817</ele>
        <time>2014-07-14T08:48:10Z</time>
      </trkpt>
      <trkpt lat="50.29014" lon="1.81945">
        <ele>57.817</ele>
        <time>2014-07-14T08:48:19Z</time>
      </trkpt>
      <trkpt lat="50.28988" lon="1.8202">
        <ele>57.817</ele>
        <time>2014-07-14T08:48:27Z</time>
      </trkpt>
      <trkpt lat="50.28957" lon="1.82085">
        <ele>57.817</ele>
        <time>2014-07-14T08:48:35Z</time>
      </trkpt>
      <trkpt lat="50.28918" lon="1.82139">
        <ele>58.297</ele>
        <time>2014-07-14T08:48:43Z</time>
      </trkpt>
      <trkpt lat="50.28892" lon="1.82174">
        <ele>58.778</ele>
        <time>2014-07-14T08:48:48Z</time>
      </trkpt>
      <trkpt lat="50.28873" lon="1.82199">
        <ele>59.258</ele>
        <time>2014-07-14T08:48:52Z</time>
      </trkpt>
      <trkpt lat="50.28843" lon="1.82232">
        <ele>59.739</ele>
        <time>2014-07-14T08:48:58Z</time>
      </trkpt>
      <trkpt lat="50.28827" lon="1.82255">
        <ele>59.739</ele>
        <time>2014-07-14T08:49:02Z</time>
      </trkpt>
      <trkpt lat="50.28824" lon="1.82265">
        <ele>59.739</ele>
        <time>2014-07-14T08:49:03Z</time>
      </trkpt>
      <trkpt lat="50.28801" lon="1.82315">
        <ele>60.22</ele>
        <time>2014-07-14T08:49:09Z</time>
      </trkpt>
      <trkpt lat="50.28772" lon="1.82374">
        <ele>61.181</ele>
        <time>2014-07-14T08:49:16Z</time>
      </trkpt>
      <trkpt lat="50.28749" lon="1.82426">
        <ele>59.739</ele>
        <time>2014-07-14T08:49:22Z</time>
      </trkpt>
      <trkpt lat="50.28735" lon="1.82479">
        <ele>59.258</ele>
        <time>2014-07-14T08:49:28Z</time>
      </trkpt>
      <trkpt lat="50.28727" lon="1.8253">
        <ele>60.22</ele>
        <time>2014-07-14T08:49:34Z</time>
      </trkpt>
      <trkpt lat="50.28726" lon="1.8256">
        <ele>59.739</ele>
        <time>2014-07-14T08:49:38Z</time>
      </trkpt>
      <trkpt lat="50.28726" lon="1.82582">
        <ele>59.739</ele>
        <time>2014-07-14T08:49:41Z</time>
      </trkpt>
      <trkpt lat="50.28718" lon="1.82618">
        <ele>60.7</ele>
        <time>2014-07-14T08:49:45Z</time>
      </trkpt>
      <trkpt lat="50.28682" lon="1.82676">
        <ele>61.181</ele>
        <time>2014-07-14T08:49:52Z</time>
      </trkpt>
      <trkpt lat="50.28656" lon="1.82737">
        <ele>60.7</ele>
        <time>2014-07-14T08:49:58Z</time>
      </trkpt>
      <trkpt lat="50.28637" lon="1.82816">
        <ele>61.181</ele>
        <time>2014-07-14T08:50:05Z</time>
      </trkpt>
      <trkpt lat="50.28635" lon="1.82859">
        <ele>61.662</ele>
        <time>2014-07-14T08:50:09Z</time>
      </trkpt>
      <trkpt lat="50.28646" lon="1.82872">
        <ele>61.662</ele>
        <time>2014-07-14T08:50:11Z</time>
      </trkpt>
      <trkpt lat="50.2869" lon="1.82925">
        <ele>61.181</ele>
        <time>2014-07-14T08:50:18Z</time>
      </trkpt>
      <trkpt lat="50.2873" lon="1.82966">
        <ele>60.7</ele>
        <time>2014-07-14T08:50:24Z</time>
      </trkpt>
      <trkpt lat="50.28791" lon="1.83016">
        <ele>60.7</ele>
        <time>2014-07-14T08:50:32Z</time>
      </trkpt>
      <trkpt lat="50.28866" lon="1.83073">
        <ele>60.22</ele>
        <time>2014-07-14T08:50:42Z</time>
      </trkpt>
      <trkpt lat="50.2892" lon="1.83105">
        <ele>60.22</ele>
        <time>2014-07-14T08:50:49Z</time>
      </trkpt>
      <trkpt lat="50.28963" lon="1.8313">
        <ele>59.739</ele>
        <time>2014-07-14T08:50:55Z</time>
      </trkpt>
      <trkpt lat="50.29001" lon="1.83154">
        <ele>59.258</ele>
        <time>2014-07-14T08:51:01Z</time>
      </trkpt>
      <trkpt lat="50.29016" lon="1.83165">
        <ele>59.258</ele>
        <time>2014-07-14T08:51:05Z</time>
      </trkpt>
      <trkpt lat="50.28996" lon="1.83132">
        <ele>59.258</ele>
        <time>2014-07-14T08:51:06Z</time>
      </trkpt>
    </trkseg>
  </trk>
</gpx>